<?xml version="1.0" encoding="UTF-8" standalone="no" ?>
<gpx xmlns="http://www.topografix.com/GPX/1/1" xmlns:xsi="http://www.w3.org/2001/XMLSchema-instance" xsi:schemaLocation="http://www.topografix.com/GPX/1/1 http://www.topografix.com/GPX/1/1/gpx.xsd" version="1.1" creator="VisuGPX - https://www.visugpx.com">
  <metadata>
    <name>2020-05-19 Depuis Neurod après la nuit</name>
  </metadata>
  <trk>
    <name><![CDATA[2020-05-19 09:10:11]]></name>
    <trkseg>
      <trkpt lat="47.9841" lon="6.98224">
        <ele>1215</ele>
        <time>2020-05-19T07:10:12.000Z</time>
      </trkpt>
      <trkpt lat="47.98408" lon="6.98239">
        <ele>1215</ele>
        <time>2020-05-19T07:11:39.000Z</time>
      </trkpt>
      <trkpt lat="47.98406" lon="6.98254">
        <ele>1214</ele>
        <time>2020-05-19T07:11:44.000Z</time>
      </trkpt>
      <trkpt lat="47.98398" lon="6.98261">
        <ele>1214</ele>
        <time>2020-05-19T07:11:57.000Z</time>
      </trkpt>
      <trkpt lat="47.98388" lon="6.98265">
        <ele>1214</ele>
        <time>2020-05-19T07:12:06.000Z</time>
      </trkpt>
      <trkpt lat="47.98379" lon="6.98268">
        <ele>1215</ele>
        <time>2020-05-19T07:12:12.000Z</time>
      </trkpt>
      <trkpt lat="47.98369" lon="6.98271">
        <ele>1215</ele>
        <time>2020-05-19T07:12:19.000Z</time>
      </trkpt>
      <trkpt lat="47.9836" lon="6.98274">
        <ele>1215</ele>
        <time>2020-05-19T07:12:28.000Z</time>
      </trkpt>
      <trkpt lat="47.98353" lon="6.98283">
        <ele>1215</ele>
        <time>2020-05-19T07:12:38.000Z</time>
      </trkpt>
      <trkpt lat="47.98344" lon="6.9829">
        <ele>1215</ele>
        <time>2020-05-19T07:12:46.000Z</time>
      </trkpt>
      <trkpt lat="47.98337" lon="6.98298">
        <ele>1215</ele>
        <time>2020-05-19T07:12:55.000Z</time>
      </trkpt>
      <trkpt lat="47.98331" lon="6.98309">
        <ele>1215</ele>
        <time>2020-05-19T07:13:04.000Z</time>
      </trkpt>
      <trkpt lat="47.98324" lon="6.98319">
        <ele>1215</ele>
        <time>2020-05-19T07:13:12.000Z</time>
      </trkpt>
      <trkpt lat="47.98316" lon="6.98328">
        <ele>1215</ele>
        <time>2020-05-19T07:13:20.000Z</time>
      </trkpt>
      <trkpt lat="47.98308" lon="6.98336">
        <ele>1211</ele>
        <time>2020-05-19T07:13:28.000Z</time>
      </trkpt>
      <trkpt lat="47.98299" lon="6.9834">
        <ele>1210</ele>
        <time>2020-05-19T07:13:35.000Z</time>
      </trkpt>
      <trkpt lat="47.9829" lon="6.98339">
        <ele>1210</ele>
        <time>2020-05-19T07:13:42.000Z</time>
      </trkpt>
      <trkpt lat="47.98281" lon="6.98338">
        <ele>1210</ele>
        <time>2020-05-19T07:13:50.000Z</time>
      </trkpt>
      <trkpt lat="47.98271" lon="6.9834">
        <ele>1211</ele>
        <time>2020-05-19T07:13:59.000Z</time>
      </trkpt>
      <trkpt lat="47.98263" lon="6.98346">
        <ele>1211</ele>
        <time>2020-05-19T07:14:09.000Z</time>
      </trkpt>
      <trkpt lat="47.98254" lon="6.9835">
        <ele>1211</ele>
        <time>2020-05-19T07:14:17.000Z</time>
      </trkpt>
      <trkpt lat="47.98245" lon="6.98354">
        <ele>1210</ele>
        <time>2020-05-19T07:14:25.000Z</time>
      </trkpt>
      <trkpt lat="47.98236" lon="6.9836">
        <ele>1208</ele>
        <time>2020-05-19T07:14:35.000Z</time>
      </trkpt>
      <trkpt lat="47.98226" lon="6.98367">
        <ele>1208</ele>
        <time>2020-05-19T07:14:43.000Z</time>
      </trkpt>
      <trkpt lat="47.98217" lon="6.98373">
        <ele>1207</ele>
        <time>2020-05-19T07:14:51.000Z</time>
      </trkpt>
      <trkpt lat="47.98208" lon="6.98377">
        <ele>1206</ele>
        <time>2020-05-19T07:14:59.000Z</time>
      </trkpt>
      <trkpt lat="47.98199" lon="6.98379">
        <ele>1206</ele>
        <time>2020-05-19T07:15:07.000Z</time>
      </trkpt>
      <trkpt lat="47.98189" lon="6.98382">
        <ele>1206</ele>
        <time>2020-05-19T07:15:15.000Z</time>
      </trkpt>
      <trkpt lat="47.9818" lon="6.98386">
        <ele>1205</ele>
        <time>2020-05-19T07:15:22.000Z</time>
      </trkpt>
      <trkpt lat="47.98171" lon="6.98391">
        <ele>1205</ele>
        <time>2020-05-19T07:15:31.000Z</time>
      </trkpt>
      <trkpt lat="47.98162" lon="6.98395">
        <ele>1201</ele>
        <time>2020-05-19T07:15:40.000Z</time>
      </trkpt>
      <trkpt lat="47.98153" lon="6.98396">
        <ele>1200</ele>
        <time>2020-05-19T07:15:48.000Z</time>
      </trkpt>
      <trkpt lat="47.98143" lon="6.98397">
        <ele>1200</ele>
        <time>2020-05-19T07:15:56.000Z</time>
      </trkpt>
      <trkpt lat="47.98134" lon="6.984">
        <ele>1199</ele>
        <time>2020-05-19T07:16:03.000Z</time>
      </trkpt>
      <trkpt lat="47.98124" lon="6.98401">
        <ele>1198</ele>
        <time>2020-05-19T07:16:11.000Z</time>
      </trkpt>
      <trkpt lat="47.98115" lon="6.98398">
        <ele>1198</ele>
        <time>2020-05-19T07:16:20.000Z</time>
      </trkpt>
      <trkpt lat="47.98106" lon="6.98406">
        <ele>1197</ele>
        <time>2020-05-19T07:16:33.000Z</time>
      </trkpt>
      <trkpt lat="47.98099" lon="6.98414">
        <ele>1196</ele>
        <time>2020-05-19T07:16:41.000Z</time>
      </trkpt>
      <trkpt lat="47.9809" lon="6.98419">
        <ele>1194</ele>
        <time>2020-05-19T07:16:49.000Z</time>
      </trkpt>
      <trkpt lat="47.98081" lon="6.98424">
        <ele>1192</ele>
        <time>2020-05-19T07:16:57.000Z</time>
      </trkpt>
      <trkpt lat="47.98072" lon="6.98429">
        <ele>1191</ele>
        <time>2020-05-19T07:17:05.000Z</time>
      </trkpt>
      <trkpt lat="47.98063" lon="6.98435">
        <ele>1191</ele>
        <time>2020-05-19T07:17:14.000Z</time>
      </trkpt>
      <trkpt lat="47.98054" lon="6.98442">
        <ele>1190</ele>
        <time>2020-05-19T07:17:23.000Z</time>
      </trkpt>
      <trkpt lat="47.98046" lon="6.98449">
        <ele>1190</ele>
        <time>2020-05-19T07:17:31.000Z</time>
      </trkpt>
      <trkpt lat="47.98038" lon="6.98455">
        <ele>1189</ele>
        <time>2020-05-19T07:17:39.000Z</time>
      </trkpt>
      <trkpt lat="47.98029" lon="6.98461">
        <ele>1189</ele>
        <time>2020-05-19T07:17:48.000Z</time>
      </trkpt>
      <trkpt lat="47.9802" lon="6.98468">
        <ele>1189</ele>
        <time>2020-05-19T07:17:57.000Z</time>
      </trkpt>
      <trkpt lat="47.98011" lon="6.98475">
        <ele>1188</ele>
        <time>2020-05-19T07:18:06.000Z</time>
      </trkpt>
      <trkpt lat="47.98003" lon="6.98481">
        <ele>1188</ele>
        <time>2020-05-19T07:18:14.000Z</time>
      </trkpt>
      <trkpt lat="47.97994" lon="6.98485">
        <ele>1186</ele>
        <time>2020-05-19T07:18:23.000Z</time>
      </trkpt>
      <trkpt lat="47.97985" lon="6.9849">
        <ele>1186</ele>
        <time>2020-05-19T07:18:31.000Z</time>
      </trkpt>
      <trkpt lat="47.97977" lon="6.98495">
        <ele>1185</ele>
        <time>2020-05-19T07:18:39.000Z</time>
      </trkpt>
      <trkpt lat="47.97968" lon="6.98499">
        <ele>1185</ele>
        <time>2020-05-19T07:18:48.000Z</time>
      </trkpt>
      <trkpt lat="47.9796" lon="6.98506">
        <ele>1186</ele>
        <time>2020-05-19T07:18:56.000Z</time>
      </trkpt>
      <trkpt lat="47.97951" lon="6.98512">
        <ele>1186</ele>
        <time>2020-05-19T07:19:04.000Z</time>
      </trkpt>
      <trkpt lat="47.97943" lon="6.98519">
        <ele>1186</ele>
        <time>2020-05-19T07:19:11.000Z</time>
      </trkpt>
      <trkpt lat="47.97934" lon="6.98526">
        <ele>1187</ele>
        <time>2020-05-19T07:19:20.000Z</time>
      </trkpt>
      <trkpt lat="47.97924" lon="6.98532">
        <ele>1187</ele>
        <time>2020-05-19T07:19:28.000Z</time>
      </trkpt>
      <trkpt lat="47.97916" lon="6.98537">
        <ele>1191</ele>
        <time>2020-05-19T07:19:36.000Z</time>
      </trkpt>
      <trkpt lat="47.97907" lon="6.98542">
        <ele>1192</ele>
        <time>2020-05-19T07:19:44.000Z</time>
      </trkpt>
      <trkpt lat="47.97899" lon="6.98547">
        <ele>1192</ele>
        <time>2020-05-19T07:19:51.000Z</time>
      </trkpt>
      <trkpt lat="47.97889" lon="6.98553">
        <ele>1193</ele>
        <time>2020-05-19T07:20:00.000Z</time>
      </trkpt>
      <trkpt lat="47.9788" lon="6.98555">
        <ele>1193</ele>
        <time>2020-05-19T07:20:08.000Z</time>
      </trkpt>
      <trkpt lat="47.97878" lon="6.98569">
        <ele>1194</ele>
        <time>2020-05-19T07:20:21.000Z</time>
      </trkpt>
      <trkpt lat="47.97877" lon="6.98582">
        <ele>1194</ele>
        <time>2020-05-19T07:20:33.000Z</time>
      </trkpt>
      <trkpt lat="47.97876" lon="6.98596">
        <ele>1196</ele>
        <time>2020-05-19T07:20:41.000Z</time>
      </trkpt>
      <trkpt lat="47.97872" lon="6.98608">
        <ele>1196</ele>
        <time>2020-05-19T07:20:49.000Z</time>
      </trkpt>
      <trkpt lat="47.97867" lon="6.98621">
        <ele>1197</ele>
        <time>2020-05-19T07:20:57.000Z</time>
      </trkpt>
      <trkpt lat="47.97861" lon="6.98633">
        <ele>1197</ele>
        <time>2020-05-19T07:21:06.000Z</time>
      </trkpt>
      <trkpt lat="47.97858" lon="6.98645">
        <ele>1198</ele>
        <time>2020-05-19T07:21:14.000Z</time>
      </trkpt>
      <trkpt lat="47.97852" lon="6.98657">
        <ele>1199</ele>
        <time>2020-05-19T07:21:21.000Z</time>
      </trkpt>
      <trkpt lat="47.97846" lon="6.98669">
        <ele>1200</ele>
        <time>2020-05-19T07:21:29.000Z</time>
      </trkpt>
      <trkpt lat="47.97841" lon="6.98681">
        <ele>1199</ele>
        <time>2020-05-19T07:21:37.000Z</time>
      </trkpt>
      <trkpt lat="47.97836" lon="6.98694">
        <ele>1198</ele>
        <time>2020-05-19T07:21:45.000Z</time>
      </trkpt>
      <trkpt lat="47.97831" lon="6.98706">
        <ele>1207</ele>
        <time>2020-05-19T07:21:52.000Z</time>
      </trkpt>
      <trkpt lat="47.97828" lon="6.98718">
        <ele>1207</ele>
        <time>2020-05-19T07:22:00.000Z</time>
      </trkpt>
      <trkpt lat="47.97822" lon="6.98731">
        <ele>1207</ele>
        <time>2020-05-19T07:22:09.000Z</time>
      </trkpt>
      <trkpt lat="47.97817" lon="6.98744">
        <ele>1206</ele>
        <time>2020-05-19T07:22:16.000Z</time>
      </trkpt>
      <trkpt lat="47.97813" lon="6.98757">
        <ele>1207</ele>
        <time>2020-05-19T07:22:24.000Z</time>
      </trkpt>
      <trkpt lat="47.97809" lon="6.98769">
        <ele>1208</ele>
        <time>2020-05-19T07:22:33.000Z</time>
      </trkpt>
      <trkpt lat="47.97804" lon="6.98782">
        <ele>1209</ele>
        <time>2020-05-19T07:22:41.000Z</time>
      </trkpt>
      <trkpt lat="47.978" lon="6.98794">
        <ele>1209</ele>
        <time>2020-05-19T07:22:49.000Z</time>
      </trkpt>
      <trkpt lat="47.97796" lon="6.98807">
        <ele>1209</ele>
        <time>2020-05-19T07:22:57.000Z</time>
      </trkpt>
      <trkpt lat="47.97792" lon="6.98819">
        <ele>1209</ele>
        <time>2020-05-19T07:23:05.000Z</time>
      </trkpt>
      <trkpt lat="47.97791" lon="6.98833">
        <ele>1210</ele>
        <time>2020-05-19T07:23:13.000Z</time>
      </trkpt>
      <trkpt lat="47.9779" lon="6.98847">
        <ele>1208</ele>
        <time>2020-05-19T07:23:21.000Z</time>
      </trkpt>
      <trkpt lat="47.97786" lon="6.9886">
        <ele>1208</ele>
        <time>2020-05-19T07:23:30.000Z</time>
      </trkpt>
      <trkpt lat="47.97782" lon="6.98873">
        <ele>1209</ele>
        <time>2020-05-19T07:23:38.000Z</time>
      </trkpt>
      <trkpt lat="47.97778" lon="6.98885">
        <ele>1209</ele>
        <time>2020-05-19T07:23:47.000Z</time>
      </trkpt>
      <trkpt lat="47.97775" lon="6.98898">
        <ele>1211</ele>
        <time>2020-05-19T07:23:56.000Z</time>
      </trkpt>
      <trkpt lat="47.97772" lon="6.98912">
        <ele>1212</ele>
        <time>2020-05-19T07:24:05.000Z</time>
      </trkpt>
      <trkpt lat="47.97771" lon="6.98926">
        <ele>1214</ele>
        <time>2020-05-19T07:24:16.000Z</time>
      </trkpt>
      <trkpt lat="47.97771" lon="6.98941">
        <ele>1213</ele>
        <time>2020-05-19T07:24:25.000Z</time>
      </trkpt>
      <trkpt lat="47.97771" lon="6.98954">
        <ele>1213</ele>
        <time>2020-05-19T07:24:33.000Z</time>
      </trkpt>
      <trkpt lat="47.97773" lon="6.98969">
        <ele>1214</ele>
        <time>2020-05-19T07:24:42.000Z</time>
      </trkpt>
      <trkpt lat="47.97775" lon="6.98982">
        <ele>1215</ele>
        <time>2020-05-19T07:24:50.000Z</time>
      </trkpt>
      <trkpt lat="47.97778" lon="6.98995">
        <ele>1215</ele>
        <time>2020-05-19T07:24:58.000Z</time>
      </trkpt>
      <trkpt lat="47.97781" lon="6.99008">
        <ele>1220</ele>
        <time>2020-05-19T07:25:05.000Z</time>
      </trkpt>
      <trkpt lat="47.97787" lon="6.99019">
        <ele>1219</ele>
        <time>2020-05-19T07:25:14.000Z</time>
      </trkpt>
      <trkpt lat="47.97791" lon="6.99032">
        <ele>1219</ele>
        <time>2020-05-19T07:25:25.000Z</time>
      </trkpt>
      <trkpt lat="47.97794" lon="6.99044">
        <ele>1219</ele>
        <time>2020-05-19T07:25:33.000Z</time>
      </trkpt>
      <trkpt lat="47.978" lon="6.99054">
        <ele>1219</ele>
        <time>2020-05-19T07:25:47.000Z</time>
      </trkpt>
      <trkpt lat="47.97807" lon="6.99064">
        <ele>1218</ele>
        <time>2020-05-19T07:26:04.000Z</time>
      </trkpt>
      <trkpt lat="47.97813" lon="6.99076">
        <ele>1218</ele>
        <time>2020-05-19T07:26:11.000Z</time>
      </trkpt>
      <trkpt lat="47.97821" lon="6.99085">
        <ele>1220</ele>
        <time>2020-05-19T07:26:20.000Z</time>
      </trkpt>
      <trkpt lat="47.97828" lon="6.99095">
        <ele>1220</ele>
        <time>2020-05-19T07:26:29.000Z</time>
      </trkpt>
      <trkpt lat="47.97835" lon="6.99105">
        <ele>1214</ele>
        <time>2020-05-19T07:26:38.000Z</time>
      </trkpt>
      <trkpt lat="47.97843" lon="6.99113">
        <ele>1214</ele>
        <time>2020-05-19T07:26:47.000Z</time>
      </trkpt>
      <trkpt lat="47.97852" lon="6.99121">
        <ele>1214</ele>
        <time>2020-05-19T07:26:56.000Z</time>
      </trkpt>
      <trkpt lat="47.97859" lon="6.99129">
        <ele>1214</ele>
        <time>2020-05-19T07:27:04.000Z</time>
      </trkpt>
      <trkpt lat="47.97867" lon="6.99139">
        <ele>1214</ele>
        <time>2020-05-19T07:27:13.000Z</time>
      </trkpt>
      <trkpt lat="47.97874" lon="6.99149">
        <ele>1214</ele>
        <time>2020-05-19T07:27:21.000Z</time>
      </trkpt>
      <trkpt lat="47.97882" lon="6.99157">
        <ele>1213</ele>
        <time>2020-05-19T07:27:28.000Z</time>
      </trkpt>
      <trkpt lat="47.97889" lon="6.99168">
        <ele>1218</ele>
        <time>2020-05-19T07:27:35.000Z</time>
      </trkpt>
      <trkpt lat="47.97896" lon="6.99178">
        <ele>1217</ele>
        <time>2020-05-19T07:27:44.000Z</time>
      </trkpt>
      <trkpt lat="47.97902" lon="6.9919">
        <ele>1217</ele>
        <time>2020-05-19T07:27:54.000Z</time>
      </trkpt>
      <trkpt lat="47.97906" lon="6.99201">
        <ele>1218</ele>
        <time>2020-05-19T07:28:03.000Z</time>
      </trkpt>
      <trkpt lat="47.97913" lon="6.99213">
        <ele>1218</ele>
        <time>2020-05-19T07:28:12.000Z</time>
      </trkpt>
      <trkpt lat="47.9792" lon="6.99223">
        <ele>1207</ele>
        <time>2020-05-19T07:28:19.000Z</time>
      </trkpt>
      <trkpt lat="47.97927" lon="6.99234">
        <ele>1208</ele>
        <time>2020-05-19T07:28:26.000Z</time>
      </trkpt>
      <trkpt lat="47.97933" lon="6.99243">
        <ele>1208</ele>
        <time>2020-05-19T07:28:34.000Z</time>
      </trkpt>
      <trkpt lat="47.9794" lon="6.99255">
        <ele>1208</ele>
        <time>2020-05-19T07:28:42.000Z</time>
      </trkpt>
      <trkpt lat="47.97946" lon="6.99265">
        <ele>1207</ele>
        <time>2020-05-19T07:28:50.000Z</time>
      </trkpt>
      <trkpt lat="47.97952" lon="6.99275">
        <ele>1205</ele>
        <time>2020-05-19T07:29:02.000Z</time>
      </trkpt>
      <trkpt lat="47.97957" lon="6.99287">
        <ele>1205</ele>
        <time>2020-05-19T07:29:11.000Z</time>
      </trkpt>
      <trkpt lat="47.97962" lon="6.99299">
        <ele>1204</ele>
        <time>2020-05-19T07:29:20.000Z</time>
      </trkpt>
      <trkpt lat="47.97964" lon="6.99313">
        <ele>1204</ele>
        <time>2020-05-19T07:29:30.000Z</time>
      </trkpt>
      <trkpt lat="47.97969" lon="6.99325">
        <ele>1203</ele>
        <time>2020-05-19T07:29:43.000Z</time>
      </trkpt>
      <trkpt lat="47.97974" lon="6.99338">
        <ele>1201</ele>
        <time>2020-05-19T07:29:56.000Z</time>
      </trkpt>
      <trkpt lat="47.97977" lon="6.99351">
        <ele>1201</ele>
        <time>2020-05-19T07:30:06.000Z</time>
      </trkpt>
      <trkpt lat="47.97978" lon="6.99367">
        <ele>1201</ele>
        <time>2020-05-19T07:30:12.000Z</time>
      </trkpt>
      <trkpt lat="47.97982" lon="6.99379">
        <ele>1201</ele>
        <time>2020-05-19T07:30:19.000Z</time>
      </trkpt>
      <trkpt lat="47.9799" lon="6.9939">
        <ele>1201</ele>
        <time>2020-05-19T07:33:46.000Z</time>
      </trkpt>
      <trkpt lat="47.97998" lon="6.99398">
        <ele>1200</ele>
        <time>2020-05-19T07:34:02.000Z</time>
      </trkpt>
      <trkpt lat="47.98007" lon="6.99405">
        <ele>1196</ele>
        <time>2020-05-19T07:34:14.000Z</time>
      </trkpt>
      <trkpt lat="47.98015" lon="6.99414">
        <ele>1195</ele>
        <time>2020-05-19T07:34:25.000Z</time>
      </trkpt>
      <trkpt lat="47.98023" lon="6.99422">
        <ele>1194</ele>
        <time>2020-05-19T07:34:31.000Z</time>
      </trkpt>
      <trkpt lat="47.98031" lon="6.99429">
        <ele>1192</ele>
        <time>2020-05-19T07:34:37.000Z</time>
      </trkpt>
      <trkpt lat="47.9804" lon="6.99437">
        <ele>1191</ele>
        <time>2020-05-19T07:34:45.000Z</time>
      </trkpt>
      <trkpt lat="47.98048" lon="6.99445">
        <ele>1191</ele>
        <time>2020-05-19T07:34:55.000Z</time>
      </trkpt>
      <trkpt lat="47.98057" lon="6.99449">
        <ele>1190</ele>
        <time>2020-05-19T07:35:02.999Z</time>
      </trkpt>
      <trkpt lat="47.98067" lon="6.9945">
        <ele>1190</ele>
        <time>2020-05-19T07:35:12.999Z</time>
      </trkpt>
      <trkpt lat="47.98077" lon="6.99454">
        <ele>1189</ele>
        <time>2020-05-19T07:35:20.999Z</time>
      </trkpt>
      <trkpt lat="47.98087" lon="6.9946">
        <ele>1184</ele>
        <time>2020-05-19T07:35:26.999Z</time>
      </trkpt>
      <trkpt lat="47.98096" lon="6.99463">
        <ele>1184</ele>
        <time>2020-05-19T07:35:32.999Z</time>
      </trkpt>
      <trkpt lat="47.98106" lon="6.99465">
        <ele>1184</ele>
        <time>2020-05-19T07:35:42.999Z</time>
      </trkpt>
      <trkpt lat="47.98116" lon="6.99466">
        <ele>1183</ele>
        <time>2020-05-19T07:35:49.999Z</time>
      </trkpt>
      <trkpt lat="47.98126" lon="6.99469">
        <ele>1183</ele>
        <time>2020-05-19T07:35:55.999Z</time>
      </trkpt>
      <trkpt lat="47.98135" lon="6.99471">
        <ele>1183</ele>
        <time>2020-05-19T07:36:02.999Z</time>
      </trkpt>
      <trkpt lat="47.98144" lon="6.99475">
        <ele>1183</ele>
        <time>2020-05-19T07:36:10.999Z</time>
      </trkpt>
      <trkpt lat="47.98152" lon="6.99481">
        <ele>1182</ele>
        <time>2020-05-19T07:36:16.999Z</time>
      </trkpt>
      <trkpt lat="47.98161" lon="6.99487">
        <ele>1182</ele>
        <time>2020-05-19T07:36:24.999Z</time>
      </trkpt>
      <trkpt lat="47.9817" lon="6.99495">
        <ele>1181</ele>
        <time>2020-05-19T07:36:32.999Z</time>
      </trkpt>
      <trkpt lat="47.98177" lon="6.99504">
        <ele>1180</ele>
        <time>2020-05-19T07:36:39.999Z</time>
      </trkpt>
      <trkpt lat="47.98183" lon="6.99515">
        <ele>1179</ele>
        <time>2020-05-19T07:36:50.999Z</time>
      </trkpt>
      <trkpt lat="47.98191" lon="6.99521">
        <ele>1179</ele>
        <time>2020-05-19T07:36:59.999Z</time>
      </trkpt>
      <trkpt lat="47.98199" lon="6.99529">
        <ele>1178</ele>
        <time>2020-05-19T07:37:09.999Z</time>
      </trkpt>
      <trkpt lat="47.98207" lon="6.99538">
        <ele>1178</ele>
        <time>2020-05-19T07:37:18.999Z</time>
      </trkpt>
      <trkpt lat="47.98215" lon="6.99542">
        <ele>1178</ele>
        <time>2020-05-19T07:37:25.999Z</time>
      </trkpt>
      <trkpt lat="47.98225" lon="6.99544">
        <ele>1177</ele>
        <time>2020-05-19T07:37:32.999Z</time>
      </trkpt>
      <trkpt lat="47.98233" lon="6.99551">
        <ele>1177</ele>
        <time>2020-05-19T07:37:45.999Z</time>
      </trkpt>
      <trkpt lat="47.98242" lon="6.99553">
        <ele>1177</ele>
        <time>2020-05-19T07:37:52.999Z</time>
      </trkpt>
      <trkpt lat="47.98252" lon="6.99555">
        <ele>1175</ele>
        <time>2020-05-19T07:38:00.999Z</time>
      </trkpt>
      <trkpt lat="47.98262" lon="6.99557">
        <ele>1175</ele>
        <time>2020-05-19T07:38:08.999Z</time>
      </trkpt>
      <trkpt lat="47.98271" lon="6.99561">
        <ele>1175</ele>
        <time>2020-05-19T07:38:15.999Z</time>
      </trkpt>
      <trkpt lat="47.98279" lon="6.99566">
        <ele>1175</ele>
        <time>2020-05-19T07:38:24.999Z</time>
      </trkpt>
      <trkpt lat="47.98288" lon="6.9957">
        <ele>1175</ele>
        <time>2020-05-19T07:38:34.999Z</time>
      </trkpt>
      <trkpt lat="47.98296" lon="6.99578">
        <ele>1175</ele>
        <time>2020-05-19T07:38:45.999Z</time>
      </trkpt>
      <trkpt lat="47.98304" lon="6.99586">
        <ele>1175</ele>
        <time>2020-05-19T07:38:56.999Z</time>
      </trkpt>
      <trkpt lat="47.98312" lon="6.99593">
        <ele>1175</ele>
        <time>2020-05-19T07:39:05.999Z</time>
      </trkpt>
      <trkpt lat="47.98319" lon="6.99603">
        <ele>1175</ele>
        <time>2020-05-19T07:39:14.999Z</time>
      </trkpt>
      <trkpt lat="47.98327" lon="6.99611">
        <ele>1175</ele>
        <time>2020-05-19T07:39:23.999Z</time>
      </trkpt>
      <trkpt lat="47.98335" lon="6.99618">
        <ele>1174</ele>
        <time>2020-05-19T07:39:30.999Z</time>
      </trkpt>
      <trkpt lat="47.98342" lon="6.99628">
        <ele>1174</ele>
        <time>2020-05-19T07:39:38.999Z</time>
      </trkpt>
      <trkpt lat="47.9835" lon="6.99636">
        <ele>1174</ele>
        <time>2020-05-19T07:39:46.999Z</time>
      </trkpt>
      <trkpt lat="47.98357" lon="6.99644">
        <ele>1174</ele>
        <time>2020-05-19T07:39:55.999Z</time>
      </trkpt>
      <trkpt lat="47.98363" lon="6.99654">
        <ele>1174</ele>
        <time>2020-05-19T07:40:06.999Z</time>
      </trkpt>
      <trkpt lat="47.9837" lon="6.99664">
        <ele>1174</ele>
        <time>2020-05-19T07:40:12.999Z</time>
      </trkpt>
      <trkpt lat="47.98377" lon="6.99673">
        <ele>1176</ele>
        <time>2020-05-19T07:40:17.999Z</time>
      </trkpt>
      <trkpt lat="47.98386" lon="6.99674">
        <ele>1176</ele>
        <time>2020-05-19T07:40:26.999Z</time>
      </trkpt>
      <trkpt lat="47.98394" lon="6.99682">
        <ele>1176</ele>
        <time>2020-05-19T07:40:33.999Z</time>
      </trkpt>
      <trkpt lat="47.98402" lon="6.99689">
        <ele>1176</ele>
        <time>2020-05-19T07:40:42.999Z</time>
      </trkpt>
      <trkpt lat="47.98411" lon="6.99694">
        <ele>1176</ele>
        <time>2020-05-19T07:40:54.999Z</time>
      </trkpt>
      <trkpt lat="47.9842" lon="6.997">
        <ele>1177</ele>
        <time>2020-05-19T07:41:02.999Z</time>
      </trkpt>
      <trkpt lat="47.98428" lon="6.99707">
        <ele>1177</ele>
        <time>2020-05-19T07:41:18.999Z</time>
      </trkpt>
      <trkpt lat="47.98436" lon="6.99715">
        <ele>1177</ele>
        <time>2020-05-19T07:41:31.999Z</time>
      </trkpt>
      <trkpt lat="47.98443" lon="6.99724">
        <ele>1178</ele>
        <time>2020-05-19T07:41:41.999Z</time>
      </trkpt>
      <trkpt lat="47.98452" lon="6.99732">
        <ele>1178</ele>
        <time>2020-05-19T07:41:51.999Z</time>
      </trkpt>
      <trkpt lat="47.98459" lon="6.9974">
        <ele>1178</ele>
        <time>2020-05-19T07:42:00.999Z</time>
      </trkpt>
      <trkpt lat="47.98467" lon="6.99749">
        <ele>1178</ele>
        <time>2020-05-19T07:42:10.999Z</time>
      </trkpt>
      <trkpt lat="47.98472" lon="6.99761">
        <ele>1183</ele>
        <time>2020-05-19T07:42:20.999Z</time>
      </trkpt>
      <trkpt lat="47.98478" lon="6.99772">
        <ele>1183</ele>
        <time>2020-05-19T07:42:28.999Z</time>
      </trkpt>
      <trkpt lat="47.98487" lon="6.99778">
        <ele>1183</ele>
        <time>2020-05-19T07:42:36.999Z</time>
      </trkpt>
      <trkpt lat="47.98494" lon="6.99788">
        <ele>1184</ele>
        <time>2020-05-19T07:42:43.999Z</time>
      </trkpt>
      <trkpt lat="47.98499" lon="6.99799">
        <ele>1184</ele>
        <time>2020-05-19T07:42:52.999Z</time>
      </trkpt>
      <trkpt lat="47.98507" lon="6.99808">
        <ele>1183</ele>
        <time>2020-05-19T07:43:05.999Z</time>
      </trkpt>
      <trkpt lat="47.98514" lon="6.99817">
        <ele>1183</ele>
        <time>2020-05-19T07:43:12.999Z</time>
      </trkpt>
      <trkpt lat="47.98524" lon="6.99822">
        <ele>1183</ele>
        <time>2020-05-19T07:43:20.999Z</time>
      </trkpt>
      <trkpt lat="47.98532" lon="6.99827">
        <ele>1182</ele>
        <time>2020-05-19T07:43:28.999Z</time>
      </trkpt>
      <trkpt lat="47.98542" lon="6.99831">
        <ele>1182</ele>
        <time>2020-05-19T07:43:37.999Z</time>
      </trkpt>
      <trkpt lat="47.9855" lon="6.99839">
        <ele>1186</ele>
        <time>2020-05-19T07:43:45.999Z</time>
      </trkpt>
      <trkpt lat="47.98548" lon="6.99853">
        <ele>1186</ele>
        <time>2020-05-19T07:44:25.999Z</time>
      </trkpt>
      <trkpt lat="47.98554" lon="6.99862">
        <ele>1186</ele>
        <time>2020-05-19T07:44:40.999Z</time>
      </trkpt>
      <trkpt lat="47.98561" lon="6.99872">
        <ele>1186</ele>
        <time>2020-05-19T07:44:52.999Z</time>
      </trkpt>
      <trkpt lat="47.98569" lon="6.9988">
        <ele>1187</ele>
        <time>2020-05-19T07:44:59.999Z</time>
      </trkpt>
      <trkpt lat="47.98577" lon="6.99886">
        <ele>1187</ele>
        <time>2020-05-19T07:45:08.999Z</time>
      </trkpt>
      <trkpt lat="47.98586" lon="6.99891">
        <ele>1185</ele>
        <time>2020-05-19T07:45:17.999Z</time>
      </trkpt>
      <trkpt lat="47.98595" lon="6.99894">
        <ele>1185</ele>
        <time>2020-05-19T07:45:26.999Z</time>
      </trkpt>
      <trkpt lat="47.98602" lon="6.99904">
        <ele>1186</ele>
        <time>2020-05-19T07:45:35.999Z</time>
      </trkpt>
      <trkpt lat="47.98604" lon="6.99919">
        <ele>1188</ele>
        <time>2020-05-19T07:45:43.999Z</time>
      </trkpt>
      <trkpt lat="47.9861" lon="6.99929">
        <ele>1188</ele>
        <time>2020-05-19T07:45:51.999Z</time>
      </trkpt>
      <trkpt lat="47.98617" lon="6.99938">
        <ele>1188</ele>
        <time>2020-05-19T07:45:59.999Z</time>
      </trkpt>
      <trkpt lat="47.98626" lon="6.99944">
        <ele>1187</ele>
        <time>2020-05-19T07:46:07.999Z</time>
      </trkpt>
      <trkpt lat="47.98635" lon="6.99948">
        <ele>1187</ele>
        <time>2020-05-19T07:46:15.999Z</time>
      </trkpt>
      <trkpt lat="47.98644" lon="6.99955">
        <ele>1187</ele>
        <time>2020-05-19T07:46:24.999Z</time>
      </trkpt>
      <trkpt lat="47.98653" lon="6.9996">
        <ele>1187</ele>
        <time>2020-05-19T07:46:34.999Z</time>
      </trkpt>
      <trkpt lat="47.98662" lon="6.99965">
        <ele>1187</ele>
        <time>2020-05-19T07:46:41.999Z</time>
      </trkpt>
      <trkpt lat="47.98672" lon="6.9997">
        <ele>1186</ele>
        <time>2020-05-19T07:46:48.999Z</time>
      </trkpt>
      <trkpt lat="47.98681" lon="6.99972">
        <ele>1186</ele>
        <time>2020-05-19T07:46:55.999Z</time>
      </trkpt>
      <trkpt lat="47.9869" lon="6.99977">
        <ele>1186</ele>
        <time>2020-05-19T07:47:00.999Z</time>
      </trkpt>
      <trkpt lat="47.98698" lon="6.99985">
        <ele>1186</ele>
        <time>2020-05-19T07:47:07.999Z</time>
      </trkpt>
      <trkpt lat="47.98706" lon="6.99993">
        <ele>1186</ele>
        <time>2020-05-19T07:47:15.999Z</time>
      </trkpt>
      <trkpt lat="47.98712" lon="7.00004">
        <ele>1186</ele>
        <time>2020-05-19T07:47:23.999Z</time>
      </trkpt>
      <trkpt lat="47.9872" lon="7.0001">
        <ele>1186</ele>
        <time>2020-05-19T07:47:31.999Z</time>
      </trkpt>
      <trkpt lat="47.98728" lon="7.00017">
        <ele>1186</ele>
        <time>2020-05-19T07:47:52.999Z</time>
      </trkpt>
      <trkpt lat="47.98737" lon="7.00024">
        <ele>1186</ele>
        <time>2020-05-19T07:48:00.999Z</time>
      </trkpt>
      <trkpt lat="47.98745" lon="7.0003">
        <ele>1186</ele>
        <time>2020-05-19T07:48:08.999Z</time>
      </trkpt>
      <trkpt lat="47.98753" lon="7.00036">
        <ele>1189</ele>
        <time>2020-05-19T07:48:18.999Z</time>
      </trkpt>
      <trkpt lat="47.98762" lon="7.00042">
        <ele>1189</ele>
        <time>2020-05-19T07:48:24.999Z</time>
      </trkpt>
      <trkpt lat="47.98771" lon="7.00042">
        <ele>1189</ele>
        <time>2020-05-19T07:48:32.999Z</time>
      </trkpt>
      <trkpt lat="47.9878" lon="7.0005">
        <ele>1190</ele>
        <time>2020-05-19T07:48:44.999Z</time>
      </trkpt>
      <trkpt lat="47.98785" lon="7.00062">
        <ele>1190</ele>
        <time>2020-05-19T07:48:50.999Z</time>
      </trkpt>
      <trkpt lat="47.98794" lon="7.00068">
        <ele>1191</ele>
        <time>2020-05-19T07:49:02.999Z</time>
      </trkpt>
      <trkpt lat="47.98801" lon="7.00076">
        <ele>1191</ele>
        <time>2020-05-19T07:49:09.999Z</time>
      </trkpt>
      <trkpt lat="47.98805" lon="7.00089">
        <ele>1191</ele>
        <time>2020-05-19T07:49:17.999Z</time>
      </trkpt>
      <trkpt lat="47.98811" lon="7.00101">
        <ele>1191</ele>
        <time>2020-05-19T07:49:24.999Z</time>
      </trkpt>
      <trkpt lat="47.98818" lon="7.0011">
        <ele>1191</ele>
        <time>2020-05-19T07:49:32.999Z</time>
      </trkpt>
      <trkpt lat="47.98827" lon="7.00117">
        <ele>1191</ele>
        <time>2020-05-19T07:49:40.999Z</time>
      </trkpt>
      <trkpt lat="47.98835" lon="7.00124">
        <ele>1196</ele>
        <time>2020-05-19T07:50:09.999Z</time>
      </trkpt>
      <trkpt lat="47.98844" lon="7.00117">
        <ele>1196</ele>
        <time>2020-05-19T07:50:17.999Z</time>
      </trkpt>
      <trkpt lat="47.98851" lon="7.00108">
        <ele>1196</ele>
        <time>2020-05-19T07:50:26.999Z</time>
      </trkpt>
      <trkpt lat="47.98853" lon="7.00122">
        <ele>1196</ele>
        <time>2020-05-19T07:50:44.999Z</time>
      </trkpt>
      <trkpt lat="47.98866" lon="7.00125">
        <ele>1196</ele>
        <time>2020-05-19T07:52:19.999Z</time>
      </trkpt>
      <trkpt lat="47.98875" lon="7.00127">
        <ele>1196</ele>
        <time>2020-05-19T07:52:50.999Z</time>
      </trkpt>
      <trkpt lat="47.98884" lon="7.00122">
        <ele>1196</ele>
        <time>2020-05-19T07:53:41.999Z</time>
      </trkpt>
      <trkpt lat="47.98891" lon="7.00131">
        <ele>1196</ele>
        <time>2020-05-19T07:54:00.999Z</time>
      </trkpt>
      <trkpt lat="47.98898" lon="7.00121">
        <ele>1196</ele>
        <time>2020-05-19T07:54:47.999Z</time>
      </trkpt>
      <trkpt lat="47.98906" lon="7.00112">
        <ele>1196</ele>
        <time>2020-05-19T07:54:57.999Z</time>
      </trkpt>
      <trkpt lat="47.98915" lon="7.00112">
        <ele>1196</ele>
        <time>2020-05-19T07:55:08.999Z</time>
      </trkpt>
      <trkpt lat="47.98924" lon="7.0012">
        <ele>1189</ele>
        <time>2020-05-19T07:55:36.999Z</time>
      </trkpt>
      <trkpt lat="47.98934" lon="7.00123">
        <ele>1188</ele>
        <time>2020-05-19T07:55:43.999Z</time>
      </trkpt>
      <trkpt lat="47.98938" lon="7.00136">
        <ele>1188</ele>
        <time>2020-05-19T07:55:58.999Z</time>
      </trkpt>
      <trkpt lat="47.98945" lon="7.00148">
        <ele>1188</ele>
        <time>2020-05-19T07:56:06.999Z</time>
      </trkpt>
      <trkpt lat="47.98945" lon="7.00162">
        <ele>1189</ele>
        <time>2020-05-19T07:56:18.999Z</time>
      </trkpt>
      <trkpt lat="47.98946" lon="7.00177">
        <ele>1192</ele>
        <time>2020-05-19T07:56:24.999Z</time>
      </trkpt>
      <trkpt lat="47.98948" lon="7.0019">
        <ele>1191</ele>
        <time>2020-05-19T07:56:35.999Z</time>
      </trkpt>
      <trkpt lat="47.98949" lon="7.00204">
        <ele>1191</ele>
        <time>2020-05-19T07:56:49.999Z</time>
      </trkpt>
      <trkpt lat="47.98955" lon="7.00215">
        <ele>1190</ele>
        <time>2020-05-19T07:56:58.999Z</time>
      </trkpt>
      <trkpt lat="47.98961" lon="7.00227">
        <ele>1189</ele>
        <time>2020-05-19T07:57:10.999Z</time>
      </trkpt>
      <trkpt lat="47.98967" lon="7.0024">
        <ele>1188</ele>
        <time>2020-05-19T07:57:17.999Z</time>
      </trkpt>
      <trkpt lat="47.98976" lon="7.00242">
        <ele>1187</ele>
        <time>2020-05-19T07:57:26.999Z</time>
      </trkpt>
      <trkpt lat="47.98984" lon="7.00251">
        <ele>1184</ele>
        <time>2020-05-19T07:57:35.999Z</time>
      </trkpt>
      <trkpt lat="47.98994" lon="7.0025">
        <ele>1182</ele>
        <time>2020-05-19T07:57:53.999Z</time>
      </trkpt>
      <trkpt lat="47.99004" lon="7.00248">
        <ele>1176</ele>
        <time>2020-05-19T07:58:04.999Z</time>
      </trkpt>
      <trkpt lat="47.99008" lon="7.00235">
        <ele>1169</ele>
        <time>2020-05-19T07:58:37.000Z</time>
      </trkpt>
      <trkpt lat="47.9901" lon="7.00221">
        <ele>1165</ele>
        <time>2020-05-19T07:58:45.000Z</time>
      </trkpt>
      <trkpt lat="47.99014" lon="7.00208">
        <ele>1164</ele>
        <time>2020-05-19T07:58:53.000Z</time>
      </trkpt>
      <trkpt lat="47.99018" lon="7.00196">
        <ele>1163</ele>
        <time>2020-05-19T08:01:02.000Z</time>
      </trkpt>
      <trkpt lat="47.99027" lon="7.00196">
        <ele>1161</ele>
        <time>2020-05-19T08:01:17.000Z</time>
      </trkpt>
      <trkpt lat="47.99037" lon="7.00198">
        <ele>1159</ele>
        <time>2020-05-19T08:01:25.000Z</time>
      </trkpt>
      <trkpt lat="47.99046" lon="7.00196">
        <ele>1157</ele>
        <time>2020-05-19T08:01:40.000Z</time>
      </trkpt>
      <trkpt lat="47.99054" lon="7.00187">
        <ele>1155</ele>
        <time>2020-05-19T08:01:47.000Z</time>
      </trkpt>
      <trkpt lat="47.99063" lon="7.0019">
        <ele>1153</ele>
        <time>2020-05-19T08:01:58.000Z</time>
      </trkpt>
      <trkpt lat="47.99071" lon="7.00196">
        <ele>1151</ele>
        <time>2020-05-19T08:02:12.000Z</time>
      </trkpt>
      <trkpt lat="47.9908" lon="7.0019">
        <ele>1150</ele>
        <time>2020-05-19T08:02:21.000Z</time>
      </trkpt>
      <trkpt lat="47.99087" lon="7.00182">
        <ele>1130</ele>
        <time>2020-05-19T08:02:42.000Z</time>
      </trkpt>
      <trkpt lat="47.99097" lon="7.0018">
        <ele>1128</ele>
        <time>2020-05-19T08:02:56.000Z</time>
      </trkpt>
      <trkpt lat="47.99106" lon="7.00176">
        <ele>1125</ele>
        <time>2020-05-19T08:03:10.000Z</time>
      </trkpt>
      <trkpt lat="47.99115" lon="7.00177">
        <ele>1121</ele>
        <time>2020-05-19T08:03:22.000Z</time>
      </trkpt>
      <trkpt lat="47.99124" lon="7.00174">
        <ele>1118</ele>
        <time>2020-05-19T08:03:36.000Z</time>
      </trkpt>
      <trkpt lat="47.99133" lon="7.00172">
        <ele>1115</ele>
        <time>2020-05-19T08:03:49.000Z</time>
      </trkpt>
      <trkpt lat="47.99139" lon="7.00159">
        <ele>1116</ele>
        <time>2020-05-19T08:03:57.000Z</time>
      </trkpt>
      <trkpt lat="47.99142" lon="7.00147">
        <ele>1115</ele>
        <time>2020-05-19T08:04:06.000Z</time>
      </trkpt>
      <trkpt lat="47.99148" lon="7.00136">
        <ele>1115</ele>
        <time>2020-05-19T08:04:40.000Z</time>
      </trkpt>
      <trkpt lat="47.99157" lon="7.00132">
        <ele>1113</ele>
        <time>2020-05-19T08:04:57.000Z</time>
      </trkpt>
      <trkpt lat="47.99166" lon="7.00137">
        <ele>1112</ele>
        <time>2020-05-19T08:05:16.000Z</time>
      </trkpt>
      <trkpt lat="47.99174" lon="7.00142">
        <ele>1091</ele>
        <time>2020-05-19T08:05:23.000Z</time>
      </trkpt>
      <trkpt lat="47.99184" lon="7.00141">
        <ele>1089</ele>
        <time>2020-05-19T08:05:32.000Z</time>
      </trkpt>
      <trkpt lat="47.9919" lon="7.00153">
        <ele>1089</ele>
        <time>2020-05-19T08:05:42.000Z</time>
      </trkpt>
      <trkpt lat="47.992" lon="7.00153">
        <ele>1086</ele>
        <time>2020-05-19T08:05:51.000Z</time>
      </trkpt>
      <trkpt lat="47.99204" lon="7.0014">
        <ele>1084</ele>
        <time>2020-05-19T08:07:00.000Z</time>
      </trkpt>
      <trkpt lat="47.99197" lon="7.00131">
        <ele>1085</ele>
        <time>2020-05-19T08:07:05.000Z</time>
      </trkpt>
      <trkpt lat="47.99186" lon="7.00124">
        <ele>1087</ele>
        <time>2020-05-19T08:07:10.000Z</time>
      </trkpt>
      <trkpt lat="47.99182" lon="7.00111">
        <ele>1087</ele>
        <time>2020-05-19T08:07:29.000Z</time>
      </trkpt>
      <trkpt lat="47.99175" lon="7.00103">
        <ele>1089</ele>
        <time>2020-05-19T08:07:40.000Z</time>
      </trkpt>
      <trkpt lat="47.99172" lon="7.00091">
        <ele>1092</ele>
        <time>2020-05-19T08:07:56.000Z</time>
      </trkpt>
      <trkpt lat="47.99164" lon="7.0008">
        <ele>1098</ele>
        <time>2020-05-19T08:08:04.000Z</time>
      </trkpt>
      <trkpt lat="47.99159" lon="7.00069">
        <ele>1103</ele>
        <time>2020-05-19T08:08:10.000Z</time>
      </trkpt>
      <trkpt lat="47.99152" lon="7.0006">
        <ele>1106</ele>
        <time>2020-05-19T08:08:16.000Z</time>
      </trkpt>
      <trkpt lat="47.99147" lon="7.00048">
        <ele>1107</ele>
        <time>2020-05-19T08:08:24.000Z</time>
      </trkpt>
      <trkpt lat="47.99139" lon="7.00038">
        <ele>1108</ele>
        <time>2020-05-19T08:08:32.000Z</time>
      </trkpt>
      <trkpt lat="47.99132" lon="7.00028">
        <ele>1109</ele>
        <time>2020-05-19T08:08:42.000Z</time>
      </trkpt>
      <trkpt lat="47.99129" lon="7.00015">
        <ele>1109</ele>
        <time>2020-05-19T08:08:54.000Z</time>
      </trkpt>
      <trkpt lat="47.99123" lon="7.00004">
        <ele>1111</ele>
        <time>2020-05-19T08:09:04.000Z</time>
      </trkpt>
      <trkpt lat="47.99118" lon="6.99993">
        <ele>1104</ele>
        <time>2020-05-19T08:09:10.000Z</time>
      </trkpt>
      <trkpt lat="47.99112" lon="6.99982">
        <ele>1105</ele>
        <time>2020-05-19T08:09:19.000Z</time>
      </trkpt>
      <trkpt lat="47.99111" lon="6.99968">
        <ele>1104</ele>
        <time>2020-05-19T08:09:28.000Z</time>
      </trkpt>
      <trkpt lat="47.99105" lon="6.99958">
        <ele>1104</ele>
        <time>2020-05-19T08:09:43.000Z</time>
      </trkpt>
      <trkpt lat="47.99098" lon="6.99947">
        <ele>1104</ele>
        <time>2020-05-19T08:10:10.000Z</time>
      </trkpt>
      <trkpt lat="47.99091" lon="6.99937">
        <ele>1105</ele>
        <time>2020-05-19T08:10:18.000Z</time>
      </trkpt>
      <trkpt lat="47.99082" lon="6.99929">
        <ele>1119</ele>
        <time>2020-05-19T08:10:23.000Z</time>
      </trkpt>
      <trkpt lat="47.99075" lon="6.99921">
        <ele>1118</ele>
        <time>2020-05-19T08:10:30.000Z</time>
      </trkpt>
      <trkpt lat="47.9907" lon="6.99909">
        <ele>1111</ele>
        <time>2020-05-19T08:10:39.000Z</time>
      </trkpt>
      <trkpt lat="47.99063" lon="6.99898">
        <ele>1112</ele>
        <time>2020-05-19T08:10:47.000Z</time>
      </trkpt>
      <trkpt lat="47.99056" lon="6.99888">
        <ele>1112</ele>
        <time>2020-05-19T08:10:55.000Z</time>
      </trkpt>
      <trkpt lat="47.99049" lon="6.99881">
        <ele>1112</ele>
        <time>2020-05-19T08:11:01.000Z</time>
      </trkpt>
      <trkpt lat="47.9904" lon="6.99875">
        <ele>1113</ele>
        <time>2020-05-19T08:11:07.000Z</time>
      </trkpt>
      <trkpt lat="47.99034" lon="6.99865">
        <ele>1112</ele>
        <time>2020-05-19T08:11:19.000Z</time>
      </trkpt>
      <trkpt lat="47.99026" lon="6.99861">
        <ele>1113</ele>
        <time>2020-05-19T08:11:43.000Z</time>
      </trkpt>
      <trkpt lat="47.99014" lon="6.99852">
        <ele>1114</ele>
        <time>2020-05-19T08:11:48.000Z</time>
      </trkpt>
      <trkpt lat="47.99007" lon="6.99844">
        <ele>1114</ele>
        <time>2020-05-19T08:11:56.000Z</time>
      </trkpt>
      <trkpt lat="47.98999" lon="6.99836">
        <ele>1117</ele>
        <time>2020-05-19T08:12:06.000Z</time>
      </trkpt>
      <trkpt lat="47.98991" lon="6.99829">
        <ele>1114</ele>
        <time>2020-05-19T08:12:18.000Z</time>
      </trkpt>
      <trkpt lat="47.98984" lon="6.9982">
        <ele>1114</ele>
        <time>2020-05-19T08:12:31.000Z</time>
      </trkpt>
      <trkpt lat="47.98976" lon="6.99812">
        <ele>1113</ele>
        <time>2020-05-19T08:12:40.000Z</time>
      </trkpt>
      <trkpt lat="47.98968" lon="6.99805">
        <ele>1113</ele>
        <time>2020-05-19T08:12:46.000Z</time>
      </trkpt>
      <trkpt lat="47.98959" lon="6.99804">
        <ele>1114</ele>
        <time>2020-05-19T08:13:03.000Z</time>
      </trkpt>
      <trkpt lat="47.98949" lon="6.99801">
        <ele>1115</ele>
        <time>2020-05-19T08:13:16.000Z</time>
      </trkpt>
      <trkpt lat="47.9894" lon="6.998">
        <ele>1116</ele>
        <time>2020-05-19T08:13:21.000Z</time>
      </trkpt>
      <trkpt lat="47.98931" lon="6.99797">
        <ele>1117</ele>
        <time>2020-05-19T08:13:28.000Z</time>
      </trkpt>
      <trkpt lat="47.98922" lon="6.99795">
        <ele>1117</ele>
        <time>2020-05-19T08:13:34.000Z</time>
      </trkpt>
      <trkpt lat="47.98914" lon="6.99788">
        <ele>1126</ele>
        <time>2020-05-19T08:13:40.000Z</time>
      </trkpt>
      <trkpt lat="47.98907" lon="6.99778">
        <ele>1124</ele>
        <time>2020-05-19T08:13:51.000Z</time>
      </trkpt>
      <trkpt lat="47.98898" lon="6.99772">
        <ele>1123</ele>
        <time>2020-05-19T08:13:58.000Z</time>
      </trkpt>
      <trkpt lat="47.98889" lon="6.99772">
        <ele>1125</ele>
        <time>2020-05-19T08:14:07.000Z</time>
      </trkpt>
      <trkpt lat="47.9888" lon="6.99781">
        <ele>1127</ele>
        <time>2020-05-19T08:14:17.000Z</time>
      </trkpt>
      <trkpt lat="47.98872" lon="6.99773">
        <ele>1126</ele>
        <time>2020-05-19T08:14:26.000Z</time>
      </trkpt>
      <trkpt lat="47.98864" lon="6.99767">
        <ele>1126</ele>
        <time>2020-05-19T08:14:36.000Z</time>
      </trkpt>
      <trkpt lat="47.98855" lon="6.99761">
        <ele>1125</ele>
        <time>2020-05-19T08:14:43.000Z</time>
      </trkpt>
      <trkpt lat="47.98846" lon="6.99756">
        <ele>1124</ele>
        <time>2020-05-19T08:14:51.000Z</time>
      </trkpt>
      <trkpt lat="47.98838" lon="6.99748">
        <ele>1116</ele>
        <time>2020-05-19T08:15:03.000Z</time>
      </trkpt>
      <trkpt lat="47.98829" lon="6.99741">
        <ele>1117</ele>
        <time>2020-05-19T08:15:11.000Z</time>
      </trkpt>
      <trkpt lat="47.98823" lon="6.99731">
        <ele>1115</ele>
        <time>2020-05-19T08:15:25.000Z</time>
      </trkpt>
      <trkpt lat="47.98815" lon="6.99724">
        <ele>1114</ele>
        <time>2020-05-19T08:15:33.000Z</time>
      </trkpt>
      <trkpt lat="47.98806" lon="6.99715">
        <ele>1113</ele>
        <time>2020-05-19T08:15:43.000Z</time>
      </trkpt>
      <trkpt lat="47.98798" lon="6.99708">
        <ele>1112</ele>
        <time>2020-05-19T08:15:48.000Z</time>
      </trkpt>
      <trkpt lat="47.9879" lon="6.997">
        <ele>1112</ele>
        <time>2020-05-19T08:15:56.000Z</time>
      </trkpt>
      <trkpt lat="47.98781" lon="6.99695">
        <ele>1112</ele>
        <time>2020-05-19T08:16:06.000Z</time>
      </trkpt>
      <trkpt lat="47.98772" lon="6.99688">
        <ele>1111</ele>
        <time>2020-05-19T08:16:14.000Z</time>
      </trkpt>
      <trkpt lat="47.98763" lon="6.99682">
        <ele>1111</ele>
        <time>2020-05-19T08:16:21.000Z</time>
      </trkpt>
      <trkpt lat="47.98757" lon="6.99672">
        <ele>1109</ele>
        <time>2020-05-19T08:16:28.000Z</time>
      </trkpt>
      <trkpt lat="47.98751" lon="6.99661">
        <ele>1103</ele>
        <time>2020-05-19T08:16:35.000Z</time>
      </trkpt>
      <trkpt lat="47.98746" lon="6.99649">
        <ele>1104</ele>
        <time>2020-05-19T08:16:44.000Z</time>
      </trkpt>
      <trkpt lat="47.98739" lon="6.99641">
        <ele>1103</ele>
        <time>2020-05-19T08:16:50.000Z</time>
      </trkpt>
      <trkpt lat="47.98731" lon="6.99631">
        <ele>1101</ele>
        <time>2020-05-19T08:16:57.000Z</time>
      </trkpt>
      <trkpt lat="47.98722" lon="6.99623">
        <ele>1100</ele>
        <time>2020-05-19T08:17:06.000Z</time>
      </trkpt>
      <trkpt lat="47.98714" lon="6.99616">
        <ele>1100</ele>
        <time>2020-05-19T08:17:15.000Z</time>
      </trkpt>
      <trkpt lat="47.98716" lon="6.99603">
        <ele>1097</ele>
        <time>2020-05-19T08:17:24.000Z</time>
      </trkpt>
      <trkpt lat="47.98707" lon="6.99597">
        <ele>1098</ele>
        <time>2020-05-19T08:17:31.000Z</time>
      </trkpt>
      <trkpt lat="47.98698" lon="6.99593">
        <ele>1098</ele>
        <time>2020-05-19T08:17:36.000Z</time>
      </trkpt>
      <trkpt lat="47.98687" lon="6.99594">
        <ele>1099</ele>
        <time>2020-05-19T08:17:45.000Z</time>
      </trkpt>
      <trkpt lat="47.98678" lon="6.9959">
        <ele>1098</ele>
        <time>2020-05-19T08:17:52.000Z</time>
      </trkpt>
      <trkpt lat="47.98669" lon="6.9959">
        <ele>1098</ele>
        <time>2020-05-19T08:18:06.000Z</time>
      </trkpt>
      <trkpt lat="47.98659" lon="6.9959">
        <ele>1104</ele>
        <time>2020-05-19T08:18:13.000Z</time>
      </trkpt>
      <trkpt lat="47.98648" lon="6.9959">
        <ele>1109</ele>
        <time>2020-05-19T08:18:18.000Z</time>
      </trkpt>
      <trkpt lat="47.98639" lon="6.99589">
        <ele>1113</ele>
        <time>2020-05-19T08:18:25.000Z</time>
      </trkpt>
      <trkpt lat="47.98629" lon="6.99586">
        <ele>1115</ele>
        <time>2020-05-19T08:18:36.000Z</time>
      </trkpt>
      <trkpt lat="47.98617" lon="6.99576">
        <ele>1100</ele>
        <time>2020-05-19T08:18:50.000Z</time>
      </trkpt>
      <trkpt lat="47.98609" lon="6.99569">
        <ele>1101</ele>
        <time>2020-05-19T08:19:00.000Z</time>
      </trkpt>
      <trkpt lat="47.986" lon="6.99563">
        <ele>1102</ele>
        <time>2020-05-19T08:19:21.000Z</time>
      </trkpt>
      <trkpt lat="47.9859" lon="6.99561">
        <ele>1103</ele>
        <time>2020-05-19T08:19:26.000Z</time>
      </trkpt>
      <trkpt lat="47.98581" lon="6.99557">
        <ele>1116</ele>
        <time>2020-05-19T08:19:37.000Z</time>
      </trkpt>
      <trkpt lat="47.9857" lon="6.9955">
        <ele>1115</ele>
        <time>2020-05-19T08:19:53.999Z</time>
      </trkpt>
      <trkpt lat="47.98561" lon="6.99538">
        <ele>1113</ele>
        <time>2020-05-19T08:19:58.999Z</time>
      </trkpt>
      <trkpt lat="47.98553" lon="6.99529">
        <ele>1112</ele>
        <time>2020-05-19T08:20:13.999Z</time>
      </trkpt>
      <trkpt lat="47.98548" lon="6.99518">
        <ele>1111</ele>
        <time>2020-05-19T08:20:23.999Z</time>
      </trkpt>
      <trkpt lat="47.98543" lon="6.99506">
        <ele>1111</ele>
        <time>2020-05-19T08:20:32.999Z</time>
      </trkpt>
      <trkpt lat="47.98536" lon="6.99493">
        <ele>1093</ele>
        <time>2020-05-19T08:20:38.999Z</time>
      </trkpt>
      <trkpt lat="47.98529" lon="6.99484">
        <ele>1093</ele>
        <time>2020-05-19T08:20:43.999Z</time>
      </trkpt>
      <trkpt lat="47.98522" lon="6.99475">
        <ele>1092</ele>
        <time>2020-05-19T08:20:50.999Z</time>
      </trkpt>
      <trkpt lat="47.98518" lon="6.99461">
        <ele>1089</ele>
        <time>2020-05-19T08:20:58.999Z</time>
      </trkpt>
      <trkpt lat="47.98513" lon="6.99448">
        <ele>1087</ele>
        <time>2020-05-19T08:21:05.999Z</time>
      </trkpt>
      <trkpt lat="47.98505" lon="6.99439">
        <ele>1085</ele>
        <time>2020-05-19T08:21:17.999Z</time>
      </trkpt>
      <trkpt lat="47.98497" lon="6.9943">
        <ele>1094</ele>
        <time>2020-05-19T08:21:25.999Z</time>
      </trkpt>
      <trkpt lat="47.98489" lon="6.99424">
        <ele>1094</ele>
        <time>2020-05-19T08:21:33.999Z</time>
      </trkpt>
      <trkpt lat="47.98483" lon="6.99413">
        <ele>1081</ele>
        <time>2020-05-19T08:21:40.999Z</time>
      </trkpt>
      <trkpt lat="47.98474" lon="6.99408">
        <ele>1081</ele>
        <time>2020-05-19T08:21:48.999Z</time>
      </trkpt>
      <trkpt lat="47.98469" lon="6.99397">
        <ele>1081</ele>
        <time>2020-05-19T08:21:58.999Z</time>
      </trkpt>
      <trkpt lat="47.98461" lon="6.99388">
        <ele>1081</ele>
        <time>2020-05-19T08:22:10.999Z</time>
      </trkpt>
      <trkpt lat="47.98454" lon="6.99376">
        <ele>1080</ele>
        <time>2020-05-19T08:22:19.999Z</time>
      </trkpt>
      <trkpt lat="47.98448" lon="6.99364">
        <ele>1078</ele>
        <time>2020-05-19T08:22:26.999Z</time>
      </trkpt>
      <trkpt lat="47.98442" lon="6.99354">
        <ele>1077</ele>
        <time>2020-05-19T08:22:36.999Z</time>
      </trkpt>
      <trkpt lat="47.98437" lon="6.99342">
        <ele>1076</ele>
        <time>2020-05-19T08:22:44.999Z</time>
      </trkpt>
      <trkpt lat="47.98433" lon="6.99328">
        <ele>1060</ele>
        <time>2020-05-19T08:22:55.999Z</time>
      </trkpt>
      <trkpt lat="47.98425" lon="6.99321">
        <ele>1062</ele>
        <time>2020-05-19T08:23:04.999Z</time>
      </trkpt>
      <trkpt lat="47.98416" lon="6.99315">
        <ele>1077</ele>
        <time>2020-05-19T08:23:11.999Z</time>
      </trkpt>
      <trkpt lat="47.98407" lon="6.99309">
        <ele>1078</ele>
        <time>2020-05-19T08:23:21.999Z</time>
      </trkpt>
      <trkpt lat="47.984" lon="6.99299">
        <ele>1077</ele>
        <time>2020-05-19T08:23:28.999Z</time>
      </trkpt>
      <trkpt lat="47.98391" lon="6.99294">
        <ele>1078</ele>
        <time>2020-05-19T08:23:41.999Z</time>
      </trkpt>
      <trkpt lat="47.98384" lon="6.99286">
        <ele>1078</ele>
        <time>2020-05-19T08:24:38.999Z</time>
      </trkpt>
      <trkpt lat="47.9838" lon="6.99272">
        <ele>1077</ele>
        <time>2020-05-19T08:24:51.999Z</time>
      </trkpt>
      <trkpt lat="47.98375" lon="6.99261">
        <ele>1077</ele>
        <time>2020-05-19T08:24:56.999Z</time>
      </trkpt>
      <trkpt lat="47.98374" lon="6.99246">
        <ele>1057</ele>
        <time>2020-05-19T08:25:05.999Z</time>
      </trkpt>
      <trkpt lat="47.98372" lon="6.99233">
        <ele>1056</ele>
        <time>2020-05-19T08:25:15.999Z</time>
      </trkpt>
      <trkpt lat="47.98367" lon="6.99221">
        <ele>1055</ele>
        <time>2020-05-19T08:25:26.999Z</time>
      </trkpt>
      <trkpt lat="47.9836" lon="6.99211">
        <ele>1054</ele>
        <time>2020-05-19T08:25:32.999Z</time>
      </trkpt>
      <trkpt lat="47.98352" lon="6.99203">
        <ele>1054</ele>
        <time>2020-05-19T08:25:39.999Z</time>
      </trkpt>
      <trkpt lat="47.98344" lon="6.99195">
        <ele>1053</ele>
        <time>2020-05-19T08:25:47.999Z</time>
      </trkpt>
      <trkpt lat="47.98335" lon="6.99186">
        <ele>1052</ele>
        <time>2020-05-19T08:25:54.999Z</time>
      </trkpt>
      <trkpt lat="47.98326" lon="6.99181">
        <ele>1068</ele>
        <time>2020-05-19T08:26:00.999Z</time>
      </trkpt>
      <trkpt lat="47.98317" lon="6.99175">
        <ele>1069</ele>
        <time>2020-05-19T08:26:06.999Z</time>
      </trkpt>
      <trkpt lat="47.9831" lon="6.99166">
        <ele>1055</ele>
        <time>2020-05-19T08:26:15.999Z</time>
      </trkpt>
      <trkpt lat="47.98302" lon="6.99159">
        <ele>1057</ele>
        <time>2020-05-19T08:26:21.999Z</time>
      </trkpt>
      <trkpt lat="47.98296" lon="6.99148">
        <ele>1057</ele>
        <time>2020-05-19T08:26:33.999Z</time>
      </trkpt>
      <trkpt lat="47.98291" lon="6.99136">
        <ele>1057</ele>
        <time>2020-05-19T08:26:42.999Z</time>
      </trkpt>
      <trkpt lat="47.98286" lon="6.99125">
        <ele>1056</ele>
        <time>2020-05-19T08:26:51.999Z</time>
      </trkpt>
      <trkpt lat="47.98282" lon="6.99113">
        <ele>1055</ele>
        <time>2020-05-19T08:27:00.999Z</time>
      </trkpt>
      <trkpt lat="47.98281" lon="6.99099">
        <ele>1054</ele>
        <time>2020-05-19T08:27:10.999Z</time>
      </trkpt>
      <trkpt lat="47.98277" lon="6.99086">
        <ele>1054</ele>
        <time>2020-05-19T08:27:18.999Z</time>
      </trkpt>
      <trkpt lat="47.98271" lon="6.99074">
        <ele>1047</ele>
        <time>2020-05-19T08:27:32.999Z</time>
      </trkpt>
      <trkpt lat="47.98264" lon="6.99064">
        <ele>1047</ele>
        <time>2020-05-19T08:27:41.999Z</time>
      </trkpt>
      <trkpt lat="47.98258" lon="6.99053">
        <ele>1046</ele>
        <time>2020-05-19T08:27:49.999Z</time>
      </trkpt>
      <trkpt lat="47.9825" lon="6.99045">
        <ele>1045</ele>
        <time>2020-05-19T08:28:48.999Z</time>
      </trkpt>
      <trkpt lat="47.98241" lon="6.99045">
        <ele>1067</ele>
        <time>2020-05-19T08:29:21.999Z</time>
      </trkpt>
      <trkpt lat="47.98239" lon="6.99031">
        <ele>1066</ele>
        <time>2020-05-19T08:29:32.999Z</time>
      </trkpt>
      <trkpt lat="47.98237" lon="6.99017">
        <ele>1062</ele>
        <time>2020-05-19T08:30:00.999Z</time>
      </trkpt>
      <trkpt lat="47.98246" lon="6.99014">
        <ele>1058</ele>
        <time>2020-05-19T08:30:26.999Z</time>
      </trkpt>
      <trkpt lat="47.98255" lon="6.99008">
        <ele>1045</ele>
        <time>2020-05-19T08:30:39.999Z</time>
      </trkpt>
      <trkpt lat="47.98262" lon="6.99">
        <ele>1046</ele>
        <time>2020-05-19T08:30:55.999Z</time>
      </trkpt>
      <trkpt lat="47.98281" lon="6.98991">
        <ele>1045</ele>
        <time>2020-05-19T08:31:19.999Z</time>
      </trkpt>
      <trkpt lat="47.98291" lon="6.98992">
        <ele>1044</ele>
        <time>2020-05-19T08:31:56.999Z</time>
      </trkpt>
      <trkpt lat="47.983" lon="6.98992">
        <ele>1043</ele>
        <time>2020-05-19T08:32:05.999Z</time>
      </trkpt>
      <trkpt lat="47.98309" lon="6.9899">
        <ele>1041</ele>
        <time>2020-05-19T08:32:19.999Z</time>
      </trkpt>
      <trkpt lat="47.98319" lon="6.98988">
        <ele>1039</ele>
        <time>2020-05-19T08:32:29.999Z</time>
      </trkpt>
      <trkpt lat="47.98328" lon="6.98987">
        <ele>1037</ele>
        <time>2020-05-19T08:32:36.999Z</time>
      </trkpt>
      <trkpt lat="47.98337" lon="6.98989">
        <ele>1031</ele>
        <time>2020-05-19T08:32:42.999Z</time>
      </trkpt>
      <trkpt lat="47.98346" lon="6.9899">
        <ele>1031</ele>
        <time>2020-05-19T08:32:48.999Z</time>
      </trkpt>
      <trkpt lat="47.98356" lon="6.98984">
        <ele>1032</ele>
        <time>2020-05-19T08:33:20.999Z</time>
      </trkpt>
      <trkpt lat="47.98362" lon="6.98974">
        <ele>1033</ele>
        <time>2020-05-19T08:33:35.999Z</time>
      </trkpt>
      <trkpt lat="47.98356" lon="6.98957">
        <ele>1035</ele>
        <time>2020-05-19T08:36:55.999Z</time>
      </trkpt>
      <trkpt lat="47.98364" lon="6.98949">
        <ele>1036</ele>
        <time>2020-05-19T08:37:17.999Z</time>
      </trkpt>
      <trkpt lat="47.98368" lon="6.98937">
        <ele>1037</ele>
        <time>2020-05-19T08:37:27.999Z</time>
      </trkpt>
      <trkpt lat="47.98377" lon="6.9893">
        <ele>1037</ele>
        <time>2020-05-19T08:37:38.999Z</time>
      </trkpt>
      <trkpt lat="47.98387" lon="6.9893">
        <ele>1036</ele>
        <time>2020-05-19T08:37:45.999Z</time>
      </trkpt>
      <trkpt lat="47.98396" lon="6.98924">
        <ele>1036</ele>
        <time>2020-05-19T08:38:19.999Z</time>
      </trkpt>
      <trkpt lat="47.98405" lon="6.98921">
        <ele>1037</ele>
        <time>2020-05-19T08:38:31.999Z</time>
      </trkpt>
      <trkpt lat="47.98406" lon="6.98907">
        <ele>1046</ele>
        <time>2020-05-19T08:38:36.999Z</time>
      </trkpt>
      <trkpt lat="47.98414" lon="6.989">
        <ele>1047</ele>
        <time>2020-05-19T08:39:00.999Z</time>
      </trkpt>
      <trkpt lat="47.98419" lon="6.98888">
        <ele>1044</ele>
        <time>2020-05-19T08:39:14.999Z</time>
      </trkpt>
      <trkpt lat="47.98418" lon="6.98874">
        <ele>1046</ele>
        <time>2020-05-19T08:39:24.999Z</time>
      </trkpt>
      <trkpt lat="47.98423" lon="6.98862">
        <ele>1049</ele>
        <time>2020-05-19T08:40:32.999Z</time>
      </trkpt>
      <trkpt lat="47.98431" lon="6.98854">
        <ele>1050</ele>
        <time>2020-05-19T08:40:45.999Z</time>
      </trkpt>
      <trkpt lat="47.9843" lon="6.9884">
        <ele>1053</ele>
        <time>2020-05-19T08:40:57.999Z</time>
      </trkpt>
      <trkpt lat="47.98433" lon="6.98826">
        <ele>1064</ele>
        <time>2020-05-19T08:41:11.999Z</time>
      </trkpt>
      <trkpt lat="47.98438" lon="6.98815">
        <ele>1066</ele>
        <time>2020-05-19T08:41:19.999Z</time>
      </trkpt>
      <trkpt lat="47.98445" lon="6.98806">
        <ele>1067</ele>
        <time>2020-05-19T08:41:31.999Z</time>
      </trkpt>
      <trkpt lat="47.98453" lon="6.988">
        <ele>1067</ele>
        <time>2020-05-19T08:41:46.999Z</time>
      </trkpt>
      <trkpt lat="47.98462" lon="6.9879">
        <ele>1068</ele>
        <time>2020-05-19T08:41:53.999Z</time>
      </trkpt>
      <trkpt lat="47.98465" lon="6.98778">
        <ele>1070</ele>
        <time>2020-05-19T08:42:07.999Z</time>
      </trkpt>
      <trkpt lat="47.98474" lon="6.98771">
        <ele>1070</ele>
        <time>2020-05-19T08:42:17.999Z</time>
      </trkpt>
      <trkpt lat="47.98483" lon="6.98771">
        <ele>1070</ele>
        <time>2020-05-19T08:42:23.999Z</time>
      </trkpt>
      <trkpt lat="47.98492" lon="6.98771">
        <ele>1070</ele>
        <time>2020-05-19T08:42:40.000Z</time>
      </trkpt>
      <trkpt lat="47.985" lon="6.98762">
        <ele>1072</ele>
        <time>2020-05-19T08:42:55.000Z</time>
      </trkpt>
      <trkpt lat="47.98505" lon="6.98751">
        <ele>1071</ele>
        <time>2020-05-19T08:43:00.000Z</time>
      </trkpt>
      <trkpt lat="47.98509" lon="6.98738">
        <ele>1078</ele>
        <time>2020-05-19T08:43:07.000Z</time>
      </trkpt>
      <trkpt lat="47.98515" lon="6.98728">
        <ele>1080</ele>
        <time>2020-05-19T08:43:15.000Z</time>
      </trkpt>
      <trkpt lat="47.9852" lon="6.98717">
        <ele>1082</ele>
        <time>2020-05-19T08:43:29.000Z</time>
      </trkpt>
      <trkpt lat="47.98529" lon="6.9871">
        <ele>1082</ele>
        <time>2020-05-19T08:43:42.000Z</time>
      </trkpt>
      <trkpt lat="47.98535" lon="6.98699">
        <ele>1084</ele>
        <time>2020-05-19T08:43:54.000Z</time>
      </trkpt>
      <trkpt lat="47.98543" lon="6.98692">
        <ele>1084</ele>
        <time>2020-05-19T08:44:03.000Z</time>
      </trkpt>
      <trkpt lat="47.98552" lon="6.98688">
        <ele>1084</ele>
        <time>2020-05-19T08:44:13.000Z</time>
      </trkpt>
      <trkpt lat="47.9856" lon="6.98679">
        <ele>1084</ele>
        <time>2020-05-19T08:44:37.000Z</time>
      </trkpt>
      <trkpt lat="47.98572" lon="6.98684">
        <ele>1084</ele>
        <time>2020-05-19T08:45:03.000Z</time>
      </trkpt>
      <trkpt lat="47.98578" lon="6.98674">
        <ele>1085</ele>
        <time>2020-05-19T08:45:30.000Z</time>
      </trkpt>
      <trkpt lat="47.98587" lon="6.98668">
        <ele>1084</ele>
        <time>2020-05-19T08:45:37.000Z</time>
      </trkpt>
      <trkpt lat="47.98594" lon="6.98658">
        <ele>1090</ele>
        <time>2020-05-19T08:45:48.000Z</time>
      </trkpt>
      <trkpt lat="47.98598" lon="6.98645">
        <ele>1092</ele>
        <time>2020-05-19T08:45:56.000Z</time>
      </trkpt>
      <trkpt lat="47.98607" lon="6.98649">
        <ele>1092</ele>
        <time>2020-05-19T08:46:05.000Z</time>
      </trkpt>
      <trkpt lat="47.98616" lon="6.98648">
        <ele>1092</ele>
        <time>2020-05-19T08:46:19.000Z</time>
      </trkpt>
      <trkpt lat="47.98625" lon="6.98642">
        <ele>1092</ele>
        <time>2020-05-19T08:46:26.000Z</time>
      </trkpt>
      <trkpt lat="47.98634" lon="6.98637">
        <ele>1093</ele>
        <time>2020-05-19T08:46:34.000Z</time>
      </trkpt>
      <trkpt lat="47.98646" lon="6.98641">
        <ele>1091</ele>
        <time>2020-05-19T08:47:00.000Z</time>
      </trkpt>
      <trkpt lat="47.98653" lon="6.98631">
        <ele>1092</ele>
        <time>2020-05-19T08:47:13.000Z</time>
      </trkpt>
      <trkpt lat="47.98658" lon="6.98619">
        <ele>1095</ele>
        <time>2020-05-19T08:47:28.000Z</time>
      </trkpt>
      <trkpt lat="47.98653" lon="6.98606">
        <ele>1098</ele>
        <time>2020-05-19T08:47:40.000Z</time>
      </trkpt>
      <trkpt lat="47.98644" lon="6.98602">
        <ele>1098</ele>
        <time>2020-05-19T08:48:02.000Z</time>
      </trkpt>
      <trkpt lat="47.98641" lon="6.98589">
        <ele>1099</ele>
        <time>2020-05-19T08:48:26.000Z</time>
      </trkpt>
      <trkpt lat="47.98638" lon="6.98576">
        <ele>1115</ele>
        <time>2020-05-19T08:48:36.000Z</time>
      </trkpt>
      <trkpt lat="47.98643" lon="6.98563">
        <ele>1116</ele>
        <time>2020-05-19T08:49:07.000Z</time>
      </trkpt>
      <trkpt lat="47.98652" lon="6.98562">
        <ele>1115</ele>
        <time>2020-05-19T08:50:08.000Z</time>
      </trkpt>
      <trkpt lat="47.98656" lon="6.9855">
        <ele>1118</ele>
        <time>2020-05-19T08:50:26.000Z</time>
      </trkpt>
      <trkpt lat="47.98659" lon="6.98537">
        <ele>1120</ele>
        <time>2020-05-19T08:51:07.000Z</time>
      </trkpt>
      <trkpt lat="47.98667" lon="6.98532">
        <ele>1118</ele>
        <time>2020-05-19T08:52:01.000Z</time>
      </trkpt>
      <trkpt lat="47.98673" lon="6.9852">
        <ele>1121</ele>
        <time>2020-05-19T08:52:12.000Z</time>
      </trkpt>
      <trkpt lat="47.98674" lon="6.98505">
        <ele>1124</ele>
        <time>2020-05-19T08:52:24.000Z</time>
      </trkpt>
      <trkpt lat="47.98669" lon="6.98492">
        <ele>1131</ele>
        <time>2020-05-19T08:52:37.000Z</time>
      </trkpt>
      <trkpt lat="47.98665" lon="6.9848">
        <ele>1138</ele>
        <time>2020-05-19T08:52:58.000Z</time>
      </trkpt>
      <trkpt lat="47.98664" lon="6.98465">
        <ele>1143</ele>
        <time>2020-05-19T08:53:56.000Z</time>
      </trkpt>
      <trkpt lat="47.98673" lon="6.98468">
        <ele>1140</ele>
        <time>2020-05-19T08:54:22.000Z</time>
      </trkpt>
      <trkpt lat="47.98666" lon="6.98482">
        <ele>1137</ele>
        <time>2020-05-19T08:55:34.000Z</time>
      </trkpt>
      <trkpt lat="47.98671" lon="6.98468">
        <ele>1140</ele>
        <time>2020-05-19T08:55:39.000Z</time>
      </trkpt>
      <trkpt lat="47.9868" lon="6.98472">
        <ele>1139</ele>
        <time>2020-05-19T08:56:35.000Z</time>
      </trkpt>
      <trkpt lat="47.9869" lon="6.98464">
        <ele>1141</ele>
        <time>2020-05-19T08:56:42.000Z</time>
      </trkpt>
      <trkpt lat="47.987" lon="6.9846">
        <ele>1142</ele>
        <time>2020-05-19T08:56:50.000Z</time>
      </trkpt>
      <trkpt lat="47.98709" lon="6.98458">
        <ele>1143</ele>
        <time>2020-05-19T08:57:02.000Z</time>
      </trkpt>
      <trkpt lat="47.98718" lon="6.98452">
        <ele>1144</ele>
        <time>2020-05-19T08:57:09.000Z</time>
      </trkpt>
      <trkpt lat="47.98727" lon="6.98449">
        <ele>1145</ele>
        <time>2020-05-19T08:57:22.000Z</time>
      </trkpt>
      <trkpt lat="47.98737" lon="6.98455">
        <ele>1144</ele>
        <time>2020-05-19T08:57:32.000Z</time>
      </trkpt>
      <trkpt lat="47.98745" lon="6.98464">
        <ele>1141</ele>
        <time>2020-05-19T08:57:38.000Z</time>
      </trkpt>
      <trkpt lat="47.98755" lon="6.98466">
        <ele>1145</ele>
        <time>2020-05-19T08:57:47.000Z</time>
      </trkpt>
      <trkpt lat="47.98764" lon="6.98468">
        <ele>1145</ele>
        <time>2020-05-19T08:57:58.000Z</time>
      </trkpt>
      <trkpt lat="47.98774" lon="6.98469">
        <ele>1145</ele>
        <time>2020-05-19T08:58:19.000Z</time>
      </trkpt>
      <trkpt lat="47.98784" lon="6.9847">
        <ele>1146</ele>
        <time>2020-05-19T08:58:24.000Z</time>
      </trkpt>
      <trkpt lat="47.98798" lon="6.98471">
        <ele>1147</ele>
        <time>2020-05-19T08:58:29.000Z</time>
      </trkpt>
      <trkpt lat="47.98808" lon="6.98469">
        <ele>1148</ele>
        <time>2020-05-19T08:58:49.000Z</time>
      </trkpt>
      <trkpt lat="47.98817" lon="6.98472">
        <ele>1148</ele>
        <time>2020-05-19T09:00:10.000Z</time>
      </trkpt>
      <trkpt lat="47.98826" lon="6.9847">
        <ele>1148</ele>
        <time>2020-05-19T09:00:21.000Z</time>
      </trkpt>
      <trkpt lat="47.98836" lon="6.98467">
        <ele>1157</ele>
        <time>2020-05-19T09:00:29.000Z</time>
      </trkpt>
      <trkpt lat="47.98844" lon="6.98458">
        <ele>1160</ele>
        <time>2020-05-19T09:00:37.000Z</time>
      </trkpt>
      <trkpt lat="47.98854" lon="6.98458">
        <ele>1161</ele>
        <time>2020-05-19T09:00:47.000Z</time>
      </trkpt>
      <trkpt lat="47.98862" lon="6.98469">
        <ele>1159</ele>
        <time>2020-05-19T09:00:55.000Z</time>
      </trkpt>
      <trkpt lat="47.98869" lon="6.9848">
        <ele>1158</ele>
        <time>2020-05-19T09:01:04.000Z</time>
      </trkpt>
      <trkpt lat="47.98879" lon="6.98484">
        <ele>1158</ele>
        <time>2020-05-19T09:01:16.000Z</time>
      </trkpt>
      <trkpt lat="47.98888" lon="6.98484">
        <ele>1159</ele>
        <time>2020-05-19T09:01:25.000Z</time>
      </trkpt>
      <trkpt lat="47.98897" lon="6.98489">
        <ele>1158</ele>
        <time>2020-05-19T09:01:31.000Z</time>
      </trkpt>
      <trkpt lat="47.98905" lon="6.98495">
        <ele>1157</ele>
        <time>2020-05-19T09:01:41.000Z</time>
      </trkpt>
      <trkpt lat="47.98914" lon="6.98495">
        <ele>1155</ele>
        <time>2020-05-19T09:01:52.000Z</time>
      </trkpt>
      <trkpt lat="47.98922" lon="6.98501">
        <ele>1151</ele>
        <time>2020-05-19T09:02:01.000Z</time>
      </trkpt>
      <trkpt lat="47.98931" lon="6.98504">
        <ele>1148</ele>
        <time>2020-05-19T09:02:11.000Z</time>
      </trkpt>
      <trkpt lat="47.98942" lon="6.98508">
        <ele>1146</ele>
        <time>2020-05-19T09:02:16.000Z</time>
      </trkpt>
      <trkpt lat="47.98951" lon="6.98509">
        <ele>1145</ele>
        <time>2020-05-19T09:02:23.000Z</time>
      </trkpt>
      <trkpt lat="47.98957" lon="6.98519">
        <ele>1144</ele>
        <time>2020-05-19T09:02:31.000Z</time>
      </trkpt>
      <trkpt lat="47.98966" lon="6.9853">
        <ele>1143</ele>
        <time>2020-05-19T09:02:37.000Z</time>
      </trkpt>
      <trkpt lat="47.98975" lon="6.98535">
        <ele>1143</ele>
        <time>2020-05-19T09:02:44.000Z</time>
      </trkpt>
      <trkpt lat="47.98984" lon="6.98536">
        <ele>1143</ele>
        <time>2020-05-19T09:02:53.000Z</time>
      </trkpt>
      <trkpt lat="47.98994" lon="6.9854">
        <ele>1142</ele>
        <time>2020-05-19T09:03:03.000Z</time>
      </trkpt>
      <trkpt lat="47.99003" lon="6.98541">
        <ele>1137</ele>
        <time>2020-05-19T09:03:15.000Z</time>
      </trkpt>
      <trkpt lat="47.99013" lon="6.98539">
        <ele>1137</ele>
        <time>2020-05-19T09:03:27.000Z</time>
      </trkpt>
      <trkpt lat="47.9902" lon="6.98531">
        <ele>1138</ele>
        <time>2020-05-19T09:03:35.000Z</time>
      </trkpt>
      <trkpt lat="47.99026" lon="6.98521">
        <ele>1138</ele>
        <time>2020-05-19T09:03:47.000Z</time>
      </trkpt>
      <trkpt lat="47.99032" lon="6.9851">
        <ele>1139</ele>
        <time>2020-05-19T09:03:56.000Z</time>
      </trkpt>
      <trkpt lat="47.99039" lon="6.98502">
        <ele>1138</ele>
        <time>2020-05-19T09:04:05.000Z</time>
      </trkpt>
      <trkpt lat="47.99049" lon="6.98495">
        <ele>1152</ele>
        <time>2020-05-19T09:04:10.000Z</time>
      </trkpt>
      <trkpt lat="47.99058" lon="6.98489">
        <ele>1150</ele>
        <time>2020-05-19T09:04:20.000Z</time>
      </trkpt>
      <trkpt lat="47.99065" lon="6.98481">
        <ele>1150</ele>
        <time>2020-05-19T09:04:26.000Z</time>
      </trkpt>
      <trkpt lat="47.99073" lon="6.98472">
        <ele>1151</ele>
        <time>2020-05-19T09:04:36.000Z</time>
      </trkpt>
      <trkpt lat="47.99078" lon="6.98461">
        <ele>1154</ele>
        <time>2020-05-19T09:04:47.000Z</time>
      </trkpt>
      <trkpt lat="47.99089" lon="6.98452">
        <ele>1143</ele>
        <time>2020-05-19T09:04:52.000Z</time>
      </trkpt>
      <trkpt lat="47.99099" lon="6.98447">
        <ele>1143</ele>
        <time>2020-05-19T09:04:57.000Z</time>
      </trkpt>
      <trkpt lat="47.99108" lon="6.98443">
        <ele>1143</ele>
        <time>2020-05-19T09:05:05.000Z</time>
      </trkpt>
      <trkpt lat="47.99117" lon="6.98442">
        <ele>1142</ele>
        <time>2020-05-19T09:05:13.000Z</time>
      </trkpt>
      <trkpt lat="47.99127" lon="6.98443">
        <ele>1140</ele>
        <time>2020-05-19T09:05:22.000Z</time>
      </trkpt>
      <trkpt lat="47.99129" lon="6.9843">
        <ele>1142</ele>
        <time>2020-05-19T09:05:55.000Z</time>
      </trkpt>
      <trkpt lat="47.99138" lon="6.98421">
        <ele>1141</ele>
        <time>2020-05-19T09:06:00.000Z</time>
      </trkpt>
      <trkpt lat="47.99147" lon="6.98422">
        <ele>1141</ele>
        <time>2020-05-19T09:06:08.000Z</time>
      </trkpt>
      <trkpt lat="47.99155" lon="6.9843">
        <ele>1140</ele>
        <time>2020-05-19T09:06:16.000Z</time>
      </trkpt>
      <trkpt lat="47.99164" lon="6.98427">
        <ele>1140</ele>
        <time>2020-05-19T09:06:29.000Z</time>
      </trkpt>
      <trkpt lat="47.99174" lon="6.98428">
        <ele>1137</ele>
        <time>2020-05-19T09:06:35.000Z</time>
      </trkpt>
      <trkpt lat="47.99184" lon="6.98427">
        <ele>1135</ele>
        <time>2020-05-19T09:06:42.000Z</time>
      </trkpt>
      <trkpt lat="47.99194" lon="6.98426">
        <ele>1134</ele>
        <time>2020-05-19T09:06:47.000Z</time>
      </trkpt>
      <trkpt lat="47.99203" lon="6.98424">
        <ele>1133</ele>
        <time>2020-05-19T09:07:01.000Z</time>
      </trkpt>
      <trkpt lat="47.99213" lon="6.98421">
        <ele>1134</ele>
        <time>2020-05-19T09:07:12.000Z</time>
      </trkpt>
      <trkpt lat="47.99222" lon="6.98415">
        <ele>1147</ele>
        <time>2020-05-19T09:07:18.000Z</time>
      </trkpt>
      <trkpt lat="47.99232" lon="6.98413">
        <ele>1146</ele>
        <time>2020-05-19T09:07:33.000Z</time>
      </trkpt>
      <trkpt lat="47.99241" lon="6.98413">
        <ele>1144</ele>
        <time>2020-05-19T09:07:41.000Z</time>
      </trkpt>
      <trkpt lat="47.99251" lon="6.98409">
        <ele>1145</ele>
        <time>2020-05-19T09:07:49.000Z</time>
      </trkpt>
      <trkpt lat="47.99261" lon="6.98403">
        <ele>1149</ele>
        <time>2020-05-19T09:07:58.000Z</time>
      </trkpt>
      <trkpt lat="47.99271" lon="6.98398">
        <ele>1152</ele>
        <time>2020-05-19T09:08:07.000Z</time>
      </trkpt>
      <trkpt lat="47.9928" lon="6.98404">
        <ele>1153</ele>
        <time>2020-05-19T09:08:20.000Z</time>
      </trkpt>
      <trkpt lat="47.99287" lon="6.98412">
        <ele>1153</ele>
        <time>2020-05-19T09:08:25.000Z</time>
      </trkpt>
      <trkpt lat="47.99293" lon="6.98423">
        <ele>1140</ele>
        <time>2020-05-19T09:08:32.000Z</time>
      </trkpt>
      <trkpt lat="47.99297" lon="6.98437">
        <ele>1140</ele>
        <time>2020-05-19T09:08:39.000Z</time>
      </trkpt>
      <trkpt lat="47.99304" lon="6.98449">
        <ele>1139</ele>
        <time>2020-05-19T09:08:44.000Z</time>
      </trkpt>
      <trkpt lat="47.99309" lon="6.98462">
        <ele>1138</ele>
        <time>2020-05-19T09:08:49.000Z</time>
      </trkpt>
      <trkpt lat="47.99314" lon="6.98474">
        <ele>1136</ele>
        <time>2020-05-19T09:08:56.000Z</time>
      </trkpt>
      <trkpt lat="47.99321" lon="6.98484">
        <ele>1135</ele>
        <time>2020-05-19T09:09:02.000Z</time>
      </trkpt>
      <trkpt lat="47.99328" lon="6.98493">
        <ele>1134</ele>
        <time>2020-05-19T09:09:09.000Z</time>
      </trkpt>
      <trkpt lat="47.99335" lon="6.98502">
        <ele>1133</ele>
        <time>2020-05-19T09:09:15.000Z</time>
      </trkpt>
      <trkpt lat="47.99342" lon="6.9851">
        <ele>1133</ele>
        <time>2020-05-19T09:09:27.000Z</time>
      </trkpt>
      <trkpt lat="47.99352" lon="6.98515">
        <ele>1134</ele>
        <time>2020-05-19T09:09:42.000Z</time>
      </trkpt>
      <trkpt lat="47.9936" lon="6.98519">
        <ele>1134</ele>
        <time>2020-05-19T09:09:49.000Z</time>
      </trkpt>
      <trkpt lat="47.99367" lon="6.98528">
        <ele>1134</ele>
        <time>2020-05-19T09:09:56.000Z</time>
      </trkpt>
      <trkpt lat="47.99373" lon="6.9854">
        <ele>1134</ele>
        <time>2020-05-19T09:10:03.000Z</time>
      </trkpt>
      <trkpt lat="47.99382" lon="6.98537">
        <ele>1135</ele>
        <time>2020-05-19T09:10:39.000Z</time>
      </trkpt>
      <trkpt lat="47.99391" lon="6.98531">
        <ele>1137</ele>
        <time>2020-05-19T09:10:49.000Z</time>
      </trkpt>
      <trkpt lat="47.99401" lon="6.9853">
        <ele>1138</ele>
        <time>2020-05-19T09:10:58.000Z</time>
      </trkpt>
      <trkpt lat="47.9941" lon="6.98533">
        <ele>1138</ele>
        <time>2020-05-19T09:11:07.000Z</time>
      </trkpt>
      <trkpt lat="47.99419" lon="6.98538">
        <ele>1145</ele>
        <time>2020-05-19T09:11:19.999Z</time>
      </trkpt>
      <trkpt lat="47.99429" lon="6.98536">
        <ele>1146</ele>
        <time>2020-05-19T09:11:27.999Z</time>
      </trkpt>
      <trkpt lat="47.99438" lon="6.98535">
        <ele>1147</ele>
        <time>2020-05-19T09:11:35.999Z</time>
      </trkpt>
      <trkpt lat="47.99447" lon="6.98531">
        <ele>1148</ele>
        <time>2020-05-19T09:11:45.999Z</time>
      </trkpt>
      <trkpt lat="47.99457" lon="6.98529">
        <ele>1149</ele>
        <time>2020-05-19T09:12:01.999Z</time>
      </trkpt>
      <trkpt lat="47.99466" lon="6.98528">
        <ele>1150</ele>
        <time>2020-05-19T09:12:11.999Z</time>
      </trkpt>
      <trkpt lat="47.99475" lon="6.98528">
        <ele>1151</ele>
        <time>2020-05-19T09:12:21.999Z</time>
      </trkpt>
      <trkpt lat="47.99484" lon="6.98527">
        <ele>1152</ele>
        <time>2020-05-19T09:12:31.999Z</time>
      </trkpt>
      <trkpt lat="47.99494" lon="6.98525">
        <ele>1153</ele>
        <time>2020-05-19T09:12:41.999Z</time>
      </trkpt>
      <trkpt lat="47.99503" lon="6.98522">
        <ele>1162</ele>
        <time>2020-05-19T09:12:52.999Z</time>
      </trkpt>
      <trkpt lat="47.99512" lon="6.98521">
        <ele>1162</ele>
        <time>2020-05-19T09:13:08.999Z</time>
      </trkpt>
      <trkpt lat="47.99524" lon="6.98521">
        <ele>1163</ele>
        <time>2020-05-19T09:13:20.999Z</time>
      </trkpt>
      <trkpt lat="47.99533" lon="6.98521">
        <ele>1163</ele>
        <time>2020-05-19T09:13:25.999Z</time>
      </trkpt>
      <trkpt lat="47.99543" lon="6.98515">
        <ele>1165</ele>
        <time>2020-05-19T09:13:37.999Z</time>
      </trkpt>
      <trkpt lat="47.9955" lon="6.98506">
        <ele>1167</ele>
        <time>2020-05-19T09:13:47.999Z</time>
      </trkpt>
      <trkpt lat="47.99559" lon="6.98501">
        <ele>1170</ele>
        <time>2020-05-19T09:13:57.999Z</time>
      </trkpt>
      <trkpt lat="47.99567" lon="6.98495">
        <ele>1185</ele>
        <time>2020-05-19T09:14:05.999Z</time>
      </trkpt>
      <trkpt lat="47.99576" lon="6.98492">
        <ele>1185</ele>
        <time>2020-05-19T09:14:11.999Z</time>
      </trkpt>
      <trkpt lat="47.99586" lon="6.98494">
        <ele>1188</ele>
        <time>2020-05-19T09:14:21.999Z</time>
      </trkpt>
      <trkpt lat="47.99595" lon="6.98499">
        <ele>1191</ele>
        <time>2020-05-19T09:14:39.999Z</time>
      </trkpt>
      <trkpt lat="47.99605" lon="6.98504">
        <ele>1182</ele>
        <time>2020-05-19T09:14:48.999Z</time>
      </trkpt>
      <trkpt lat="47.99613" lon="6.98513">
        <ele>1182</ele>
        <time>2020-05-19T09:14:58.999Z</time>
      </trkpt>
      <trkpt lat="47.99623" lon="6.98518">
        <ele>1182</ele>
        <time>2020-05-19T09:15:08.999Z</time>
      </trkpt>
      <trkpt lat="47.99632" lon="6.98518">
        <ele>1184</ele>
        <time>2020-05-19T09:15:18.999Z</time>
      </trkpt>
      <trkpt lat="47.99641" lon="6.98515">
        <ele>1186</ele>
        <time>2020-05-19T09:15:28.999Z</time>
      </trkpt>
      <trkpt lat="47.9965" lon="6.98512">
        <ele>1189</ele>
        <time>2020-05-19T09:15:39.999Z</time>
      </trkpt>
      <trkpt lat="47.9966" lon="6.98513">
        <ele>1191</ele>
        <time>2020-05-19T09:15:48.999Z</time>
      </trkpt>
      <trkpt lat="47.99669" lon="6.98512">
        <ele>1200</ele>
        <time>2020-05-19T09:15:59.999Z</time>
      </trkpt>
      <trkpt lat="47.99678" lon="6.98511">
        <ele>1201</ele>
        <time>2020-05-19T09:16:16.999Z</time>
      </trkpt>
      <trkpt lat="47.99687" lon="6.98517">
        <ele>1201</ele>
        <time>2020-05-19T09:16:22.999Z</time>
      </trkpt>
      <trkpt lat="47.9969" lon="6.98531">
        <ele>1199</ele>
        <time>2020-05-19T09:16:32.999Z</time>
      </trkpt>
      <trkpt lat="47.99697" lon="6.98541">
        <ele>1199</ele>
        <time>2020-05-19T09:16:43.999Z</time>
      </trkpt>
      <trkpt lat="47.99703" lon="6.98552">
        <ele>1198</ele>
        <time>2020-05-19T09:16:55.999Z</time>
      </trkpt>
      <trkpt lat="47.99705" lon="6.98566">
        <ele>1197</ele>
        <time>2020-05-19T09:17:03.999Z</time>
      </trkpt>
      <trkpt lat="47.99714" lon="6.98569">
        <ele>1198</ele>
        <time>2020-05-19T09:17:24.999Z</time>
      </trkpt>
      <trkpt lat="47.99722" lon="6.98576">
        <ele>1198</ele>
        <time>2020-05-19T09:17:36.999Z</time>
      </trkpt>
      <trkpt lat="47.99731" lon="6.98578">
        <ele>1199</ele>
        <time>2020-05-19T09:17:47.999Z</time>
      </trkpt>
      <trkpt lat="47.99741" lon="6.98577">
        <ele>1199</ele>
        <time>2020-05-19T09:17:53.999Z</time>
      </trkpt>
      <trkpt lat="47.99756" lon="6.98571">
        <ele>1200</ele>
        <time>2020-05-19T09:18:01.999Z</time>
      </trkpt>
      <trkpt lat="47.99762" lon="6.9856">
        <ele>1201</ele>
        <time>2020-05-19T09:18:21.999Z</time>
      </trkpt>
      <trkpt lat="47.99769" lon="6.98551">
        <ele>1202</ele>
        <time>2020-05-19T09:18:36.999Z</time>
      </trkpt>
      <trkpt lat="47.99776" lon="6.98541">
        <ele>1203</ele>
        <time>2020-05-19T09:18:53.999Z</time>
      </trkpt>
      <trkpt lat="47.9978" lon="6.98528">
        <ele>1205</ele>
        <time>2020-05-19T09:19:03.999Z</time>
      </trkpt>
      <trkpt lat="47.99784" lon="6.98516">
        <ele>1206</ele>
        <time>2020-05-19T09:19:18.999Z</time>
      </trkpt>
      <trkpt lat="47.99783" lon="6.98502">
        <ele>1207</ele>
        <time>2020-05-19T09:19:28.999Z</time>
      </trkpt>
      <trkpt lat="47.99776" lon="6.98492">
        <ele>1220</ele>
        <time>2020-05-19T09:19:46.999Z</time>
      </trkpt>
      <trkpt lat="47.99772" lon="6.98479">
        <ele>1221</ele>
        <time>2020-05-19T09:20:01.999Z</time>
      </trkpt>
      <trkpt lat="47.99766" lon="6.9847">
        <ele>1222</ele>
        <time>2020-05-19T09:20:17.999Z</time>
      </trkpt>
      <trkpt lat="47.99759" lon="6.98461">
        <ele>1223</ele>
        <time>2020-05-19T09:20:33.999Z</time>
      </trkpt>
      <trkpt lat="47.99753" lon="6.98449">
        <ele>1225</ele>
        <time>2020-05-19T09:20:45.999Z</time>
      </trkpt>
      <trkpt lat="47.99748" lon="6.98437">
        <ele>1227</ele>
        <time>2020-05-19T09:20:57.999Z</time>
      </trkpt>
      <trkpt lat="47.99743" lon="6.98424">
        <ele>1231</ele>
        <time>2020-05-19T09:21:12.999Z</time>
      </trkpt>
      <trkpt lat="47.99737" lon="6.98413">
        <ele>1237</ele>
        <time>2020-05-19T09:21:24.999Z</time>
      </trkpt>
      <trkpt lat="47.99729" lon="6.98404">
        <ele>1237</ele>
        <time>2020-05-19T09:21:33.999Z</time>
      </trkpt>
      <trkpt lat="47.99723" lon="6.98394">
        <ele>1238</ele>
        <time>2020-05-19T09:21:45.999Z</time>
      </trkpt>
      <trkpt lat="47.99717" lon="6.98383">
        <ele>1238</ele>
        <time>2020-05-19T09:21:59.999Z</time>
      </trkpt>
      <trkpt lat="47.9971" lon="6.98372">
        <ele>1239</ele>
        <time>2020-05-19T09:22:09.999Z</time>
      </trkpt>
      <trkpt lat="47.99704" lon="6.9836">
        <ele>1240</ele>
        <time>2020-05-19T09:22:21.999Z</time>
      </trkpt>
      <trkpt lat="47.99698" lon="6.98349">
        <ele>1241</ele>
        <time>2020-05-19T09:22:34.999Z</time>
      </trkpt>
      <trkpt lat="47.99695" lon="6.98337">
        <ele>1241</ele>
        <time>2020-05-19T09:22:49.999Z</time>
      </trkpt>
      <trkpt lat="47.99694" lon="6.98323">
        <ele>1253</ele>
        <time>2020-05-19T09:23:02.999Z</time>
      </trkpt>
      <trkpt lat="47.99693" lon="6.98309">
        <ele>1254</ele>
        <time>2020-05-19T09:23:10.999Z</time>
      </trkpt>
      <trkpt lat="47.9969" lon="6.98295">
        <ele>1256</ele>
        <time>2020-05-19T09:23:22.999Z</time>
      </trkpt>
      <trkpt lat="47.99686" lon="6.98283">
        <ele>1257</ele>
        <time>2020-05-19T09:23:38.999Z</time>
      </trkpt>
      <trkpt lat="47.99679" lon="6.98273">
        <ele>1259</ele>
        <time>2020-05-19T09:23:45.999Z</time>
      </trkpt>
      <trkpt lat="47.9967" lon="6.98268">
        <ele>1260</ele>
        <time>2020-05-19T09:23:54.999Z</time>
      </trkpt>
      <trkpt lat="47.9966" lon="6.98263">
        <ele>1257</ele>
        <time>2020-05-19T09:24:05.999Z</time>
      </trkpt>
      <trkpt lat="47.99651" lon="6.98259">
        <ele>1256</ele>
        <time>2020-05-19T09:24:13.999Z</time>
      </trkpt>
      <trkpt lat="47.99642" lon="6.98252">
        <ele>1255</ele>
        <time>2020-05-19T09:24:25.999Z</time>
      </trkpt>
      <trkpt lat="47.99635" lon="6.98244">
        <ele>1265</ele>
        <time>2020-05-19T09:24:37.999Z</time>
      </trkpt>
      <trkpt lat="47.99628" lon="6.98234">
        <ele>1265</ele>
        <time>2020-05-19T09:24:49.999Z</time>
      </trkpt>
      <trkpt lat="47.99621" lon="6.98224">
        <ele>1265</ele>
        <time>2020-05-19T09:24:59.999Z</time>
      </trkpt>
      <trkpt lat="47.99614" lon="6.98215">
        <ele>1266</ele>
        <time>2020-05-19T09:25:07.999Z</time>
      </trkpt>
      <trkpt lat="47.99606" lon="6.98206">
        <ele>1266</ele>
        <time>2020-05-19T09:25:19.999Z</time>
      </trkpt>
      <trkpt lat="47.99598" lon="6.98197">
        <ele>1267</ele>
        <time>2020-05-19T09:25:32.999Z</time>
      </trkpt>
      <trkpt lat="47.99591" lon="6.98188">
        <ele>1269</ele>
        <time>2020-05-19T09:25:51.999Z</time>
      </trkpt>
      <trkpt lat="47.99585" lon="6.98176">
        <ele>1271</ele>
        <time>2020-05-19T09:25:58.999Z</time>
      </trkpt>
      <trkpt lat="47.99578" lon="6.98166">
        <ele>1273</ele>
        <time>2020-05-19T09:26:14.999Z</time>
      </trkpt>
      <trkpt lat="47.99569" lon="6.98159">
        <ele>1274</ele>
        <time>2020-05-19T09:26:24.999Z</time>
      </trkpt>
      <trkpt lat="47.9956" lon="6.98152">
        <ele>1275</ele>
        <time>2020-05-19T09:26:39.999Z</time>
      </trkpt>
      <trkpt lat="47.99553" lon="6.9814">
        <ele>1275</ele>
        <time>2020-05-19T09:26:47.999Z</time>
      </trkpt>
      <trkpt lat="47.99545" lon="6.98126">
        <ele>1275</ele>
        <time>2020-05-19T09:26:52.999Z</time>
      </trkpt>
      <trkpt lat="47.99539" lon="6.9811">
        <ele>1276</ele>
        <time>2020-05-19T09:26:57.999Z</time>
      </trkpt>
      <trkpt lat="47.99535" lon="6.98098">
        <ele>1276</ele>
        <time>2020-05-19T09:27:04.999Z</time>
      </trkpt>
      <trkpt lat="47.9953" lon="6.98085">
        <ele>1277</ele>
        <time>2020-05-19T09:27:19.999Z</time>
      </trkpt>
      <trkpt lat="47.99523" lon="6.98075">
        <ele>1277</ele>
        <time>2020-05-19T09:27:31.999Z</time>
      </trkpt>
      <trkpt lat="47.99514" lon="6.98071">
        <ele>1278</ele>
        <time>2020-05-19T09:27:39.999Z</time>
      </trkpt>
      <trkpt lat="47.99504" lon="6.98071">
        <ele>1278</ele>
        <time>2020-05-19T09:27:49.999Z</time>
      </trkpt>
      <trkpt lat="47.99493" lon="6.98067">
        <ele>1281</ele>
        <time>2020-05-19T09:27:54.999Z</time>
      </trkpt>
      <trkpt lat="47.99484" lon="6.98064">
        <ele>1282</ele>
        <time>2020-05-19T09:28:01.999Z</time>
      </trkpt>
      <trkpt lat="47.99475" lon="6.98062">
        <ele>1282</ele>
        <time>2020-05-19T09:28:11.999Z</time>
      </trkpt>
      <trkpt lat="47.99465" lon="6.98063">
        <ele>1282</ele>
        <time>2020-05-19T09:28:22.999Z</time>
      </trkpt>
      <trkpt lat="47.99456" lon="6.9806">
        <ele>1283</ele>
        <time>2020-05-19T09:28:32.999Z</time>
      </trkpt>
      <trkpt lat="47.99447" lon="6.9806">
        <ele>1283</ele>
        <time>2020-05-19T09:28:48.999Z</time>
      </trkpt>
      <trkpt lat="47.99436" lon="6.98054">
        <ele>1284</ele>
        <time>2020-05-19T09:29:02.999Z</time>
      </trkpt>
      <trkpt lat="47.99427" lon="6.98061">
        <ele>1284</ele>
        <time>2020-05-19T09:29:16.999Z</time>
      </trkpt>
      <trkpt lat="47.99419" lon="6.98056">
        <ele>1284</ele>
        <time>2020-05-19T09:29:30.999Z</time>
      </trkpt>
      <trkpt lat="47.99409" lon="6.98054">
        <ele>1286</ele>
        <time>2020-05-19T09:29:42.999Z</time>
      </trkpt>
      <trkpt lat="47.994" lon="6.98058">
        <ele>1286</ele>
        <time>2020-05-19T09:29:49.999Z</time>
      </trkpt>
      <trkpt lat="47.99391" lon="6.98054">
        <ele>1286</ele>
        <time>2020-05-19T09:30:19.999Z</time>
      </trkpt>
      <trkpt lat="47.99385" lon="6.98045">
        <ele>1286</ele>
        <time>2020-05-19T09:35:20.999Z</time>
      </trkpt>
      <trkpt lat="47.99375" lon="6.98046">
        <ele>1286</ele>
        <time>2020-05-19T09:35:37.999Z</time>
      </trkpt>
      <trkpt lat="47.99368" lon="6.98055">
        <ele>1286</ele>
        <time>2020-05-19T09:35:52.999Z</time>
      </trkpt>
      <trkpt lat="47.99359" lon="6.98057">
        <ele>1286</ele>
        <time>2020-05-19T09:36:07.999Z</time>
      </trkpt>
      <trkpt lat="47.9935" lon="6.98062">
        <ele>1287</ele>
        <time>2020-05-19T09:36:19.999Z</time>
      </trkpt>
      <trkpt lat="47.9934" lon="6.98066">
        <ele>1287</ele>
        <time>2020-05-19T09:36:25.999Z</time>
      </trkpt>
      <trkpt lat="47.99331" lon="6.98069">
        <ele>1284</ele>
        <time>2020-05-19T09:36:33.999Z</time>
      </trkpt>
      <trkpt lat="47.99322" lon="6.98069">
        <ele>1283</ele>
        <time>2020-05-19T09:36:39.999Z</time>
      </trkpt>
      <trkpt lat="47.99313" lon="6.98068">
        <ele>1282</ele>
        <time>2020-05-19T09:36:49.999Z</time>
      </trkpt>
      <trkpt lat="47.99303" lon="6.98069">
        <ele>1281</ele>
        <time>2020-05-19T09:36:59.999Z</time>
      </trkpt>
      <trkpt lat="47.99294" lon="6.98071">
        <ele>1280</ele>
        <time>2020-05-19T09:37:08.999Z</time>
      </trkpt>
      <trkpt lat="47.99285" lon="6.98072">
        <ele>1279</ele>
        <time>2020-05-19T09:37:19.999Z</time>
      </trkpt>
      <trkpt lat="47.99276" lon="6.98074">
        <ele>1279</ele>
        <time>2020-05-19T09:37:27.999Z</time>
      </trkpt>
      <trkpt lat="47.99266" lon="6.98075">
        <ele>1278</ele>
        <time>2020-05-19T09:37:38.999Z</time>
      </trkpt>
      <trkpt lat="47.99257" lon="6.98074">
        <ele>1277</ele>
        <time>2020-05-19T09:37:46.999Z</time>
      </trkpt>
      <trkpt lat="47.99247" lon="6.98076">
        <ele>1273</ele>
        <time>2020-05-19T09:37:54.999Z</time>
      </trkpt>
      <trkpt lat="47.99238" lon="6.98078">
        <ele>1272</ele>
        <time>2020-05-19T09:38:04.999Z</time>
      </trkpt>
      <trkpt lat="47.99229" lon="6.98079">
        <ele>1270</ele>
        <time>2020-05-19T09:38:13.999Z</time>
      </trkpt>
      <trkpt lat="47.99219" lon="6.9808">
        <ele>1268</ele>
        <time>2020-05-19T09:38:23.999Z</time>
      </trkpt>
      <trkpt lat="47.9921" lon="6.98081">
        <ele>1267</ele>
        <time>2020-05-19T09:38:34.999Z</time>
      </trkpt>
      <trkpt lat="47.99201" lon="6.98085">
        <ele>1262</ele>
        <time>2020-05-19T09:38:43.999Z</time>
      </trkpt>
      <trkpt lat="47.99192" lon="6.98086">
        <ele>1261</ele>
        <time>2020-05-19T09:38:51.999Z</time>
      </trkpt>
      <trkpt lat="47.99182" lon="6.98088">
        <ele>1261</ele>
        <time>2020-05-19T09:38:58.999Z</time>
      </trkpt>
      <trkpt lat="47.99172" lon="6.9809">
        <ele>1261</ele>
        <time>2020-05-19T09:39:11.999Z</time>
      </trkpt>
      <trkpt lat="47.99163" lon="6.98091">
        <ele>1258</ele>
        <time>2020-05-19T09:39:20.999Z</time>
      </trkpt>
      <trkpt lat="47.99153" lon="6.98091">
        <ele>1256</ele>
        <time>2020-05-19T09:39:31.999Z</time>
      </trkpt>
      <trkpt lat="47.99143" lon="6.98091">
        <ele>1255</ele>
        <time>2020-05-19T09:39:40.999Z</time>
      </trkpt>
      <trkpt lat="47.99134" lon="6.98088">
        <ele>1254</ele>
        <time>2020-05-19T09:39:49.999Z</time>
      </trkpt>
      <trkpt lat="47.99125" lon="6.98087">
        <ele>1253</ele>
        <time>2020-05-19T09:39:57.999Z</time>
      </trkpt>
      <trkpt lat="47.99116" lon="6.98085">
        <ele>1252</ele>
        <time>2020-05-19T09:40:04.999Z</time>
      </trkpt>
      <trkpt lat="47.99106" lon="6.98083">
        <ele>1252</ele>
        <time>2020-05-19T09:40:11.999Z</time>
      </trkpt>
      <trkpt lat="47.99097" lon="6.98081">
        <ele>1251</ele>
        <time>2020-05-19T09:40:19.999Z</time>
      </trkpt>
      <trkpt lat="47.99087" lon="6.98079">
        <ele>1251</ele>
        <time>2020-05-19T09:40:27.999Z</time>
      </trkpt>
      <trkpt lat="47.99078" lon="6.98075">
        <ele>1248</ele>
        <time>2020-05-19T09:40:38.999Z</time>
      </trkpt>
      <trkpt lat="47.99069" lon="6.98073">
        <ele>1247</ele>
        <time>2020-05-19T09:40:46.999Z</time>
      </trkpt>
      <trkpt lat="47.99059" lon="6.9807">
        <ele>1246</ele>
        <time>2020-05-19T09:40:54.999Z</time>
      </trkpt>
      <trkpt lat="47.99049" lon="6.98068">
        <ele>1245</ele>
        <time>2020-05-19T09:41:03.999Z</time>
      </trkpt>
      <trkpt lat="47.9904" lon="6.98066">
        <ele>1245</ele>
        <time>2020-05-19T09:41:12.999Z</time>
      </trkpt>
      <trkpt lat="47.9903" lon="6.98064">
        <ele>1244</ele>
        <time>2020-05-19T09:41:22.999Z</time>
      </trkpt>
      <trkpt lat="47.99021" lon="6.98062">
        <ele>1244</ele>
        <time>2020-05-19T09:41:30.999Z</time>
      </trkpt>
      <trkpt lat="47.99012" lon="6.9806">
        <ele>1244</ele>
        <time>2020-05-19T09:41:37.999Z</time>
      </trkpt>
      <trkpt lat="47.99003" lon="6.98059">
        <ele>1244</ele>
        <time>2020-05-19T09:41:45.999Z</time>
      </trkpt>
      <trkpt lat="47.98994" lon="6.98057">
        <ele>1242</ele>
        <time>2020-05-19T09:41:53.999Z</time>
      </trkpt>
      <trkpt lat="47.98983" lon="6.98056">
        <ele>1242</ele>
        <time>2020-05-19T09:42:02.999Z</time>
      </trkpt>
      <trkpt lat="47.98973" lon="6.98057">
        <ele>1242</ele>
        <time>2020-05-19T09:42:10.999Z</time>
      </trkpt>
      <trkpt lat="47.98964" lon="6.98056">
        <ele>1241</ele>
        <time>2020-05-19T09:42:17.999Z</time>
      </trkpt>
      <trkpt lat="47.98954" lon="6.98055">
        <ele>1241</ele>
        <time>2020-05-19T09:42:24.999Z</time>
      </trkpt>
      <trkpt lat="47.98945" lon="6.98055">
        <ele>1241</ele>
        <time>2020-05-19T09:42:32.999Z</time>
      </trkpt>
      <trkpt lat="47.98936" lon="6.98054">
        <ele>1241</ele>
        <time>2020-05-19T09:42:41.000Z</time>
      </trkpt>
      <trkpt lat="47.98926" lon="6.98053">
        <ele>1241</ele>
        <time>2020-05-19T09:42:48.000Z</time>
      </trkpt>
      <trkpt lat="47.98916" lon="6.98052">
        <ele>1240</ele>
        <time>2020-05-19T09:42:56.000Z</time>
      </trkpt>
      <trkpt lat="47.98907" lon="6.98052">
        <ele>1241</ele>
        <time>2020-05-19T09:43:03.000Z</time>
      </trkpt>
      <trkpt lat="47.98898" lon="6.98052">
        <ele>1241</ele>
        <time>2020-05-19T09:43:11.000Z</time>
      </trkpt>
      <trkpt lat="47.98888" lon="6.9805">
        <ele>1241</ele>
        <time>2020-05-19T09:43:20.000Z</time>
      </trkpt>
      <trkpt lat="47.98878" lon="6.98048">
        <ele>1241</ele>
        <time>2020-05-19T09:43:28.000Z</time>
      </trkpt>
      <trkpt lat="47.98869" lon="6.98047">
        <ele>1241</ele>
        <time>2020-05-19T09:43:36.000Z</time>
      </trkpt>
      <trkpt lat="47.9886" lon="6.98045">
        <ele>1241</ele>
        <time>2020-05-19T09:43:44.000Z</time>
      </trkpt>
      <trkpt lat="47.98851" lon="6.98044">
        <ele>1241</ele>
        <time>2020-05-19T09:43:51.000Z</time>
      </trkpt>
      <trkpt lat="47.98841" lon="6.98041">
        <ele>1241</ele>
        <time>2020-05-19T09:43:58.000Z</time>
      </trkpt>
      <trkpt lat="47.98832" lon="6.9804">
        <ele>1240</ele>
        <time>2020-05-19T09:44:05.000Z</time>
      </trkpt>
      <trkpt lat="47.98823" lon="6.98038">
        <ele>1239</ele>
        <time>2020-05-19T09:44:13.000Z</time>
      </trkpt>
      <trkpt lat="47.98813" lon="6.98036">
        <ele>1239</ele>
        <time>2020-05-19T09:44:22.000Z</time>
      </trkpt>
      <trkpt lat="47.98803" lon="6.98035">
        <ele>1239</ele>
        <time>2020-05-19T09:44:29.000Z</time>
      </trkpt>
      <trkpt lat="47.98794" lon="6.98031">
        <ele>1239</ele>
        <time>2020-05-19T09:44:35.000Z</time>
      </trkpt>
      <trkpt lat="47.98785" lon="6.98028">
        <ele>1238</ele>
        <time>2020-05-19T09:44:47.000Z</time>
      </trkpt>
      <trkpt lat="47.98775" lon="6.98024">
        <ele>1238</ele>
        <time>2020-05-19T09:44:56.000Z</time>
      </trkpt>
      <trkpt lat="47.98766" lon="6.98019">
        <ele>1238</ele>
        <time>2020-05-19T09:45:01.000Z</time>
      </trkpt>
      <trkpt lat="47.98757" lon="6.98013">
        <ele>1237</ele>
        <time>2020-05-19T09:45:08.000Z</time>
      </trkpt>
      <trkpt lat="47.98748" lon="6.98009">
        <ele>1235</ele>
        <time>2020-05-19T09:45:16.000Z</time>
      </trkpt>
      <trkpt lat="47.98738" lon="6.98008">
        <ele>1235</ele>
        <time>2020-05-19T09:45:24.000Z</time>
      </trkpt>
      <trkpt lat="47.98729" lon="6.98008">
        <ele>1234</ele>
        <time>2020-05-19T09:45:31.000Z</time>
      </trkpt>
      <trkpt lat="47.98719" lon="6.98008">
        <ele>1234</ele>
        <time>2020-05-19T09:45:40.000Z</time>
      </trkpt>
      <trkpt lat="47.9871" lon="6.98004">
        <ele>1234</ele>
        <time>2020-05-19T09:45:48.000Z</time>
      </trkpt>
      <trkpt lat="47.98701" lon="6.98">
        <ele>1231</ele>
        <time>2020-05-19T09:45:57.000Z</time>
      </trkpt>
      <trkpt lat="47.98691" lon="6.98">
        <ele>1231</ele>
        <time>2020-05-19T09:46:06.000Z</time>
      </trkpt>
      <trkpt lat="47.98682" lon="6.97998">
        <ele>1231</ele>
        <time>2020-05-19T09:46:13.000Z</time>
      </trkpt>
      <trkpt lat="47.98673" lon="6.98001">
        <ele>1232</ele>
        <time>2020-05-19T09:46:21.000Z</time>
      </trkpt>
      <trkpt lat="47.98664" lon="6.98009">
        <ele>1230</ele>
        <time>2020-05-19T09:46:29.000Z</time>
      </trkpt>
      <trkpt lat="47.98656" lon="6.98013">
        <ele>1229</ele>
        <time>2020-05-19T09:46:37.000Z</time>
      </trkpt>
      <trkpt lat="47.98646" lon="6.98013">
        <ele>1229</ele>
        <time>2020-05-19T09:46:46.000Z</time>
      </trkpt>
      <trkpt lat="47.98637" lon="6.98012">
        <ele>1228</ele>
        <time>2020-05-19T09:46:55.000Z</time>
      </trkpt>
      <trkpt lat="47.98627" lon="6.98015">
        <ele>1227</ele>
        <time>2020-05-19T09:47:02.000Z</time>
      </trkpt>
      <trkpt lat="47.98618" lon="6.98017">
        <ele>1227</ele>
        <time>2020-05-19T09:47:09.000Z</time>
      </trkpt>
      <trkpt lat="47.98608" lon="6.98017">
        <ele>1226</ele>
        <time>2020-05-19T09:47:18.000Z</time>
      </trkpt>
      <trkpt lat="47.98599" lon="6.98018">
        <ele>1226</ele>
        <time>2020-05-19T09:47:26.000Z</time>
      </trkpt>
      <trkpt lat="47.9859" lon="6.9802">
        <ele>1226</ele>
        <time>2020-05-19T09:47:33.000Z</time>
      </trkpt>
      <trkpt lat="47.98581" lon="6.98022">
        <ele>1223</ele>
        <time>2020-05-19T09:47:42.000Z</time>
      </trkpt>
      <trkpt lat="47.98571" lon="6.98024">
        <ele>1222</ele>
        <time>2020-05-19T09:47:50.000Z</time>
      </trkpt>
      <trkpt lat="47.98561" lon="6.98027">
        <ele>1222</ele>
        <time>2020-05-19T09:47:58.000Z</time>
      </trkpt>
      <trkpt lat="47.98553" lon="6.9803">
        <ele>1221</ele>
        <time>2020-05-19T09:48:05.000Z</time>
      </trkpt>
      <trkpt lat="47.98544" lon="6.98036">
        <ele>1221</ele>
        <time>2020-05-19T09:48:12.000Z</time>
      </trkpt>
      <trkpt lat="47.98535" lon="6.98044">
        <ele>1221</ele>
        <time>2020-05-19T09:49:41.000Z</time>
      </trkpt>
      <trkpt lat="47.98526" lon="6.98054">
        <ele>1220</ele>
        <time>2020-05-19T09:49:46.000Z</time>
      </trkpt>
      <trkpt lat="47.98519" lon="6.98062">
        <ele>1220</ele>
        <time>2020-05-19T09:49:53.000Z</time>
      </trkpt>
      <trkpt lat="47.98512" lon="6.98072">
        <ele>1219</ele>
        <time>2020-05-19T09:49:58.000Z</time>
      </trkpt>
      <trkpt lat="47.98506" lon="6.98081">
        <ele>1219</ele>
        <time>2020-05-19T09:50:05.000Z</time>
      </trkpt>
      <trkpt lat="47.98498" lon="6.98091">
        <ele>1217</ele>
        <time>2020-05-19T09:50:14.000Z</time>
      </trkpt>
      <trkpt lat="47.98491" lon="6.98099">
        <ele>1216</ele>
        <time>2020-05-19T09:50:23.000Z</time>
      </trkpt>
      <trkpt lat="47.98484" lon="6.98109">
        <ele>1215</ele>
        <time>2020-05-19T09:50:31.000Z</time>
      </trkpt>
      <trkpt lat="47.98478" lon="6.98119">
        <ele>1214</ele>
        <time>2020-05-19T09:50:38.000Z</time>
      </trkpt>
      <trkpt lat="47.98471" lon="6.9813">
        <ele>1214</ele>
        <time>2020-05-19T09:50:46.000Z</time>
      </trkpt>
      <trkpt lat="47.98463" lon="6.98135">
        <ele>1214</ele>
        <time>2020-05-19T09:51:24.000Z</time>
      </trkpt>
      <trkpt lat="47.98457" lon="6.98147">
        <ele>1214</ele>
        <time>2020-05-19T09:51:36.000Z</time>
      </trkpt>
      <trkpt lat="47.98449" lon="6.98155">
        <ele>1214</ele>
        <time>2020-05-19T09:51:46.000Z</time>
      </trkpt>
      <trkpt lat="47.98442" lon="6.98164">
        <ele>1214</ele>
        <time>2020-05-19T09:52:02.000Z</time>
      </trkpt>
      <trkpt lat="47.98438" lon="6.98176">
        <ele>1213</ele>
        <time>2020-05-19T09:52:14.000Z</time>
      </trkpt>
      <trkpt lat="47.98431" lon="6.98188">
        <ele>1213</ele>
        <time>2020-05-19T09:52:22.000Z</time>
      </trkpt>
      <trkpt lat="47.98423" lon="6.98195">
        <ele>1213</ele>
        <time>2020-05-19T09:52:30.000Z</time>
      </trkpt>
      <trkpt lat="47.9842" lon="6.98206">
        <ele>1213</ele>
        <time>2020-05-19T09:52:35.000Z</time>
      </trkpt>
    </trkseg>
  </trk>
</gpx>